Time,TemperatureF,DewpointF,PressureIn,WindDirection,WindDirectionDegrees,WindSpeedMPH,WindSpeedGustMPH,Humidity,HourlyPrecipIn,Conditions,Clouds,dailyrainin,SoftwareType,DateUTC
2013-01-14 00:02:00,42.3,42.3,30.06,South,172,2.0,2.0,100,0.00,,,0.00,Wunderground v.1.15,2013-01-14 05:02:00,
2013-01-14 00:04:00,42.4,42.4,30.06,South,172,0.0,2.0,100,0.00,,,0.00,Wunderground v.1.15,2013-01-14 05:04:00,
2013-01-14 00:05:00,42.5,42.5,30.06,South,172,0.0,2.0,100,0.00,,,0.00,Wunderground v.1.15,2013-01-14 05:05:00,
2013-01-14 00:08:00,42.5,42.5,30.05,South,172,0.0,2.0,100,0.00,,,0.00,Wunderground v.1.15,2013-01-14 05:08:00,
2013-01-14 00:11:00,42.4,42.4,30.05,South,172,1.0,1.0,100,0.00,,,0.00,Wunderground v.1.15,2013-01-14 05:11:00,
2013-01-14 00:12:00,42.3,42.3,30.05,South,172,0.0,1.0,100,0.00,,,0.00,Wunderground v.1.15,2013-01-14 05:12:00,
2013-01-14 00:14:00,42.2,42.2,30.05,South,172,1.0,2.0,100,0.00,,,0.00,Wunderground v.1.15,2013-01-14 05:14:00,
2013-01-14 00:18:00,42.2,42.2,30.05,South,172,0.0,2.0,100,0.00,,,0.00,Wunderground v.1.15,2013-01-14 05:18:00,
2013-01-14 00:19:00,42.2,42.2,30.05,South,172,0.0,2.0,100,0.00,,,0.00,Wunderground v.1.15,2013-01-14 05:19:00,
2013-01-14 00:21:00,42.2,42.2,30.05,South,172,0.0,0.0,100,0.00,,,0.00,Wunderground v.1.15,2013-01-14 05:21:00,
2013-01-14 00:25:00,42.1,42.1,30.05,South,172,0.0,0.0,100,0.00,,,0.00,Wunderground v.1.15,2013-01-14 05:25:00,
2013-01-14 00:27:00,42.1,42.1,30.05,South,172,0.0,0.0,100,0.00,,,0.00,Wunderground v.1.15,2013-01-14 05:27:00,
2013-01-14 00:28:00,42.0,42.0,30.05,South,172,2.0,2.0,100,0.00,,,0.00,Wunderground v.1.15,2013-01-14 05:28:00,
2013-01-14 00:30:00,42.2,42.2,30.05,South,172,0.0,0.0,100,0.00,,,0.00,Wunderground v.1.15,2013-01-14 05:30:00,
2013-01-14 00:34:00,42.0,42.0,30.05,South,172,1.0,1.0,100,0.00,,,0.00,Wunderground v.1.15,2013-01-14 05:34:00,
2013-01-14 00:37:00,41.6,41.6,30.05,South,172,0.0,1.0,100,0.00,,,0.00,Wunderground v.1.15,2013-01-14 05:37:00,
2013-01-14 00:38:00,41.4,41.4,30.05,South,172,0.0,1.0,100,0.00,,,0.00,Wunderground v.1.15,2013-01-14 05:38:00,
2013-01-14 00:43:00,41.4,41.4,30.05,South,172,0.0,0.0,100,0.00,,,0.00,Wunderground v.1.15,2013-01-14 05:43:00,
2013-01-14 00:44:00,41.5,41.5,30.05,South,172,0.0,0.0,100,0.00,,,0.00,Wunderground v.1.15,2013-01-14 05:44:00,
2013-01-14 00:45:00,41.6,41.6,30.05,South,172,1.0,1.0,100,0.00,,,0.00,Wunderground v.1.15,2013-01-14 05:45:00,
2013-01-14 00:50:00,42.1,42.1,30.05,South,172,0.0,0.0,100,0.00,,,0.00,Wunderground v.1.15,2013-01-14 05:50:00,
2013-01-14 00:52:00,42.1,42.1,30.05,South,172,0.0,0.0,100,0.00,,,0.00,Wunderground v.1.15,2013-01-14 05:52:00,
2013-01-14 00:56:00,42.1,42.1,30.04,South,172,0.0,0.0,100,0.00,,,0.00,Wunderground v.1.15,2013-01-14 05:56:00,
2013-01-14 00:57:00,42.1,42.1,30.04,South,172,1.0,1.0,100,0.00,,,0.00,Wunderground v.1.15,2013-01-14 05:57:00,
2013-01-14 01:01:00,42.3,42.3,30.03,South,172,0.0,0.0,100,0.00,,,0.00,Wunderground v.1.15,2013-01-14 06:01:00,
2013-01-14 01:02:00,42.3,42.3,30.04,South,172,1.0,1.0,100,0.00,,,0.00,Wunderground v.1.15,2013-01-14 06:02:00,
2013-01-14 01:08:00,42.0,42.0,30.04,South,172,1.0,1.0,100,0.00,,,0.00,Wunderground v.1.15,2013-01-14 06:08:00,
2013-01-14 01:11:00,42.1,42.1,30.05,South,172,0.0,1.0,100,0.00,,,0.00,Wunderground v.1.15,2013-01-14 06:11:00,
2013-01-14 01:14:00,42.3,42.3,30.04,South,172,0.0,1.0,100,0.00,,,0.00,Wunderground v.1.15,2013-01-14 06:14:00,
2013-01-14 01:19:00,42.3,42.3,30.04,South,172,0.0,1.0,100,0.00,,,0.00,Wunderground v.1.15,2013-01-14 06:19:00,
2013-01-14 01:20:00,42.3,42.3,30.04,South,172,0.0,1.0,100,0.00,,,0.00,Wunderground v.1.15,2013-01-14 06:20:00,
2013-01-14 01:25:00,42.2,42.2,30.04,South,172,0.0,0.0,100,0.00,,,0.00,Wunderground v.1.15,2013-01-14 06:25:00,
2013-01-14 01:27:00,42.0,42.0,30.04,South,172,0.0,0.0,100,0.00,,,0.00,Wunderground v.1.15,2013-01-14 06:27:00,
2013-01-14 01:33:00,41.7,41.7,30.04,South,172,0.0,0.0,100,0.00,,,0.00,Wunderground v.1.15,2013-01-14 06:33:00,
2013-01-14 01:35:00,41.8,41.8,30.04,South,172,0.0,1.0,100,0.00,,,0.00,Wunderground v.1.15,2013-01-14 06:35:00,
2013-01-14 01:38:00,41.7,41.7,30.04,South,172,0.0,1.0,100,0.00,,,0.00,Wunderground v.1.15,2013-01-14 06:38:00,
2013-01-14 01:44:00,41.6,41.6,30.04,South,172,0.0,1.0,100,0.00,,,0.00,Wunderground v.1.15,2013-01-14 06:44:00,
2013-01-14 01:50:00,41.1,41.1,30.04,South,172,0.0,1.0,100,0.00,,,0.00,Wunderground v.1.15,2013-01-14 06:50:00,
2013-01-14 01:56:00,41.2,41.2,30.04,South,172,1.0,1.0,100,0.00,,,0.00,Wunderground v.1.15,2013-01-14 06:56:00,
2013-01-14 02:01:00,41.3,41.3,30.04,South,172,0.0,0.0,100,0.00,,,0.00,Wunderground v.1.15,2013-01-14 07:01:00,
2013-01-14 02:02:00,41.3,41.3,30.04,South,172,0.0,0.0,100,0.00,,,0.00,Wunderground v.1.15,2013-01-14 07:02:00,
2013-01-14 02:07:00,41.3,41.3,30.04,South,172,0.0,2.0,100,0.00,,,0.00,Wunderground v.1.15,2013-01-14 07:07:00,
2013-01-14 02:12:00,41.5,41.5,30.04,South,172,0.0,1.0,100,0.00,,,0.00,Wunderground v.1.15,2013-01-14 07:12:00,
2013-01-14 02:13:00,41.5,41.5,30.03,South,172,0.0,1.0,100,0.00,,,0.00,Wunderground v.1.15,2013-01-14 07:13:00,
2013-01-14 02:17:00,41.5,41.5,30.03,South,172,0.0,1.0,100,0.00,,,0.00,Wunderground v.1.15,2013-01-14 07:17:00,
2013-01-14 02:18:00,41.5,41.5,30.03,South,172,0.0,1.0,100,0.00,,,0.00,Wunderground v.1.15,2013-01-14 07:18:00,
2013-01-14 02:22:00,41.4,41.4,30.03,South,172,0.0,1.0,100,0.00,,,0.00,Wunderground v.1.15,2013-01-14 07:22:00,
2013-01-14 02:23:00,41.4,41.4,30.03,South,172,1.0,1.0,100,0.00,,,0.00,Wunderground v.1.15,2013-01-14 07:23:00,
2013-01-14 02:27:00,41.4,41.4,30.03,South,172,1.0,1.0,100,0.00,,,0.00,Wunderground v.1.15,2013-01-14 07:27:00,
2013-01-14 02:28:00,41.5,41.5,30.03,South,172,0.0,1.0,100,0.00,,,0.00,Wunderground v.1.15,2013-01-14 07:28:00,
2013-01-14 02:32:00,41.5,41.5,30.03,South,172,1.0,2.0,100,0.00,,,0.00,Wunderground v.1.15,2013-01-14 07:32:00,
2013-01-14 02:33:00,41.6,41.6,30.03,South,172,2.0,4.0,100,0.00,,,0.00,Wunderground v.1.15,2013-01-14 07:33:00,
2013-01-14 02:37:00,41.6,41.6,30.03,South,172,3.0,5.0,100,0.00,,,0.00,Wunderground v.1.15,2013-01-14 07:37:00,
2013-01-14 02:38:00,41.6,41.6,30.03,South,172,1.0,5.0,100,0.00,,,0.00,Wunderground v.1.15,2013-01-14 07:38:00,
2013-01-14 02:42:00,41.5,41.5,30.03,South,172,1.0,1.0,100,0.00,,,0.00,Wunderground v.1.15,2013-01-14 07:42:00,
2013-01-14 02:43:00,41.5,41.5,30.03,South,172,0.0,1.0,100,0.00,,,0.00,Wunderground v.1.15,2013-01-14 07:43:00,
2013-01-14 02:44:00,41.4,41.4,30.03,South,172,0.0,1.0,100,0.00,,,0.00,Wunderground v.1.15,2013-01-14 07:44:00,
2013-01-14 02:47:00,41.1,41.1,30.03,South,172,1.0,2.0,100,0.00,,,0.00,Wunderground v.1.15,2013-01-14 07:47:00,
2013-01-14 02:48:00,41.2,41.2,30.03,South,172,0.0,2.0,100,0.00,,,0.00,Wunderground v.1.15,2013-01-14 07:48:00,
2013-01-14 02:49:00,41.2,41.2,30.03,South,172,0.0,2.0,100,0.00,,,0.00,Wunderground v.1.15,2013-01-14 07:49:00,
2013-01-14 02:53:00,41.4,41.4,30.03,South,172,3.0,4.0,100,0.00,,,0.00,Wunderground v.1.15,2013-01-14 07:53:00,
2013-01-14 02:54:00,41.4,41.4,30.03,South,172,2.0,4.0,100,0.00,,,0.00,Wunderground v.1.15,2013-01-14 07:54:00,
2013-01-14 02:58:00,41.4,41.4,30.03,South,172,0.0,7.0,100,0.00,,,0.00,Wunderground v.1.15,2013-01-14 07:58:00,
2013-01-14 02:59:00,41.3,41.3,30.03,South,172,1.0,7.0,100,0.00,,,0.00,Wunderground v.1.15,2013-01-14 07:59:00,
2013-01-14 03:03:00,41.4,41.4,30.03,South,172,1.0,2.0,100,0.00,,,0.00,Wunderground v.1.15,2013-01-14 08:03:00,
2013-01-14 03:04:00,41.4,41.4,30.03,South,172,0.0,2.0,100,0.00,,,0.00,Wunderground v.1.15,2013-01-14 08:04:00,
2013-01-14 03:08:00,41.3,41.3,30.02,South,172,0.0,3.0,100,0.00,,,0.00,Wunderground v.1.15,2013-01-14 08:08:00,
2013-01-14 03:09:00,41.3,41.3,30.02,South,172,0.0,3.0,100,0.00,,,0.00,Wunderground v.1.15,2013-01-14 08:09:00,
2013-01-14 03:13:00,41.3,41.3,30.02,South,172,0.0,2.0,100,0.00,,,0.00,Wunderground v.1.15,2013-01-14 08:13:00,
2013-01-14 03:14:00,41.3,41.3,30.02,South,172,0.0,2.0,100,0.00,,,0.00,Wunderground v.1.15,2013-01-14 08:14:00,
2013-01-14 03:18:00,41.2,41.2,30.02,South,172,1.0,6.0,100,0.00,,,0.00,Wunderground v.1.15,2013-01-14 08:18:00,
2013-01-14 03:19:00,41.2,41.2,30.02,South,172,3.0,6.0,100,0.00,,,0.00,Wunderground v.1.15,2013-01-14 08:19:00,
2013-01-14 03:23:00,41.3,41.3,30.01,South,172,1.0,6.0,100,0.00,,,0.00,Wunderground v.1.15,2013-01-14 08:23:00,
2013-01-14 03:24:00,41.3,41.3,30.01,South,172,1.0,6.0,100,0.00,,,0.00,Wunderground v.1.15,2013-01-14 08:24:00,
2013-01-14 03:25:00,41.3,41.3,30.01,South,172,2.0,6.0,100,0.00,,,0.00,Wunderground v.1.15,2013-01-14 08:25:00,
2013-01-14 03:29:00,41.3,41.3,30.01,South,172,3.0,6.0,100,0.00,,,0.00,Wunderground v.1.15,2013-01-14 08:29:00,
2013-01-14 03:30:00,41.3,41.3,30.01,South,172,1.0,6.0,100,0.00,,,0.00,Wunderground v.1.15,2013-01-14 08:30:00,
2013-01-14 03:34:00,41.4,41.4,30.01,South,172,2.0,5.0,100,0.00,,,0.00,Wunderground v.1.15,2013-01-14 08:34:00,
2013-01-14 03:35:00,41.4,41.4,30.01,South,172,2.0,5.0,100,0.00,,,0.00,Wunderground v.1.15,2013-01-14 08:35:00,
2013-01-14 03:39:00,41.4,41.4,30.01,South,172,2.0,7.0,100,0.00,,,0.00,Wunderground v.1.15,2013-01-14 08:39:00,
2013-01-14 03:40:00,41.4,41.4,30.01,South,172,0.0,2.0,100,0.00,,,0.00,Wunderground v.1.15,2013-01-14 08:40:00,
2013-01-14 03:44:00,41.3,41.3,30.00,South,172,2.0,5.0,100,0.00,,,0.00,Wunderground v.1.15,2013-01-14 08:44:00,
2013-01-14 03:46:00,41.3,41.3,30.00,South,172,1.0,5.0,100,0.00,,,0.00,Wunderground v.1.15,2013-01-14 08:46:00,
2013-01-14 03:49:00,41.3,41.3,30.00,South,172,1.0,7.0,100,0.00,,,0.00,Wunderground v.1.15,2013-01-14 08:49:00,
2013-01-14 03:50:00,41.3,41.3,30.00,South,172,3.0,3.0,100,0.00,,,0.00,Wunderground v.1.15,2013-01-14 08:50:00,
2013-01-14 03:51:00,41.3,41.3,30.00,South,172,1.0,5.0,100,0.00,,,0.00,Wunderground v.1.15,2013-01-14 08:51:00,
2013-01-14 03:54:00,41.4,41.4,30.01,South,172,2.0,5.0,100,0.00,,,0.00,Wunderground v.1.15,2013-01-14 08:54:00,
2013-01-14 03:55:00,41.4,41.4,30.01,South,172,3.0,5.0,100,0.00,,,0.00,Wunderground v.1.15,2013-01-14 08:55:00,
2013-01-14 03:56:00,41.4,41.4,30.01,South,172,4.0,5.0,100,0.00,,,0.00,Wunderground v.1.15,2013-01-14 08:56:00,
2013-01-14 03:59:00,41.5,41.5,30.01,South,172,3.0,6.0,100,0.00,,,0.00,Wunderground v.1.15,2013-01-14 08:59:00,
2013-01-14 04:01:00,41.5,41.5,30.00,South,172,1.0,2.0,100,0.00,,,0.00,Wunderground v.1.15,2013-01-14 09:01:00,
2013-01-14 04:04:00,41.5,41.5,30.00,South,172,5.0,7.0,100,0.00,,,0.00,Wunderground v.1.15,2013-01-14 09:04:00,
2013-01-14 04:05:00,41.6,41.6,30.00,South,172,4.0,7.0,100,0.00,,,0.00,Wunderground v.1.15,2013-01-14 09:05:00,
2013-01-14 04:06:00,41.6,41.6,30.00,South,172,3.0,7.0,100,0.00,,,0.00,Wunderground v.1.15,2013-01-14 09:06:00,
2013-01-14 04:09:00,41.7,41.7,30.00,South,172,3.0,7.0,100,0.00,,,0.00,Wunderground v.1.15,2013-01-14 09:09:00,
2013-01-14 04:10:00,41.6,41.6,30.00,South,172,4.0,7.0,100,0.00,,,0.00,Wunderground v.1.15,2013-01-14 09:10:00,
2013-01-14 04:11:00,41.5,41.5,30.00,South,172,2.0,4.0,100,0.00,,,0.00,Wunderground v.1.15,2013-01-14 09:11:00,
2013-01-14 04:12:00,41.5,41.5,30.00,South,172,2.0,4.0,100,0.00,,,0.00,Wunderground v.1.15,2013-01-14 09:12:00,
2013-01-14 04:14:00,41.4,41.4,30.01,South,172,1.0,4.0,100,0.00,,,0.00,Wunderground v.1.15,2013-01-14 09:14:00,
2013-01-14 04:15:00,41.4,41.4,30.01,South,172,3.0,5.0,100,0.00,,,0.00,Wunderground v.1.15,2013-01-14 09:15:00,
2013-01-14 04:16:00,41.4,41.4,29.99,South,172,2.0,5.0,100,0.00,,,0.00,Wunderground v.1.15,2013-01-14 09:16:00,
2013-01-14 04:17:00,41.3,41.3,29.99,South,172,2.0,5.0,100,0.00,,,0.00,Wunderground v.1.15,2013-01-14 09:17:00,
2013-01-14 04:19:00,41.1,41.1,29.99,South,172,3.0,5.0,100,0.00,,,0.00,Wunderground v.1.15,2013-01-14 09:19:00,
2013-01-14 04:20:00,41.1,41.1,29.99,South,172,2.0,5.0,100,0.00,,,0.00,Wunderground v.1.15,2013-01-14 09:20:00,
2013-01-14 04:22:00,41.1,41.1,29.99,South,172,5.0,5.0,100,0.00,,,0.00,Wunderground v.1.15,2013-01-14 09:22:00,
2013-01-14 04:24:00,41.2,41.2,29.98,South,172,3.0,5.0,100,0.00,,,0.00,Wunderground v.1.15,2013-01-14 09:24:00,
2013-01-14 04:25:00,41.2,41.2,29.99,South,172,2.0,5.0,100,0.00,,,0.00,Wunderground v.1.15,2013-01-14 09:25:00,
2013-01-14 04:27:00,41.1,41.1,29.98,South,172,3.0,5.0,100,0.00,,,0.01,Wunderground v.1.15,2013-01-14 09:27:00,
2013-01-14 04:29:00,41.1,41.1,29.98,South,172,6.0,6.0,100,0.00,,,0.01,Wunderground v.1.15,2013-01-14 09:29:00,
2013-01-14 04:30:00,41.1,41.1,29.98,South,172,2.0,6.0,100,0.00,,,0.01,Wunderground v.1.15,2013-01-14 09:30:00,
2013-01-14 04:32:00,41.1,41.1,29.99,South,172,2.0,6.0,100,0.00,,,0.01,Wunderground v.1.15,2013-01-14 09:32:00,
2013-01-14 04:34:00,41.0,41.0,29.98,South,172,4.0,9.0,100,0.09,,,0.02,Wunderground v.1.15,2013-01-14 09:34:00,
2013-01-14 04:35:00,41.1,41.1,29.98,South,172,2.0,9.0,100,0.09,,,0.02,Wunderground v.1.15,2013-01-14 09:35:00,
2013-01-14 04:37:00,41.1,41.1,29.98,South,172,5.0,9.0,100,0.17,,,0.03,Wunderground v.1.15,2013-01-14 09:37:00,
2013-01-14 04:39:00,41.0,41.0,29.98,South,172,3.0,11.0,100,0.17,,,0.03,Wunderground v.1.15,2013-01-14 09:39:00,
2013-01-14 04:40:00,41.1,41.1,29.98,South,172,4.0,11.0,100,0.14,,,0.03,Wunderground v.1.15,2013-01-14 09:40:00,
2013-01-14 04:42:00,41.2,41.2,29.98,South,172,4.0,7.0,100,0.10,,,0.03,Wunderground v.1.15,2013-01-14 09:42:00,
2013-01-14 04:44:00,41.2,41.2,29.97,South,172,2.0,8.0,100,0.07,,,0.03,Wunderground v.1.15,2013-01-14 09:44:00,
2013-01-14 04:45:00,41.2,41.2,29.97,South,172,4.0,8.0,100,0.06,,,0.03,Wunderground v.1.15,2013-01-14 09:45:00,
2013-01-14 04:47:00,41.1,41.1,29.97,South,172,2.0,8.0,100,0.05,,,0.03,Wunderground v.1.15,2013-01-14 09:47:00,
2013-01-14 04:48:00,41.0,41.0,29.97,South,172,4.0,8.0,100,0.05,,,0.03,Wunderground v.1.15,2013-01-14 09:48:00,
2013-01-14 04:49:00,40.9,40.9,29.96,South,172,2.0,8.0,100,0.04,,,0.03,Wunderground v.1.15,2013-01-14 09:49:00,
2013-01-14 04:50:00,41.0,41.0,29.95,South,172,4.0,8.0,100,0.04,,,0.03,Wunderground v.1.15,2013-01-14 09:50:00,
2013-01-14 04:52:00,41.0,41.0,29.95,South,172,4.0,4.0,100,0.04,,,0.03,Wunderground v.1.15,2013-01-14 09:52:00,
2013-01-14 04:53:00,41.0,41.0,29.95,South,172,2.0,4.0,100,0.04,,,0.03,Wunderground v.1.15,2013-01-14 09:53:00,
2013-01-14 04:54:00,40.9,40.9,29.95,South,172,5.0,5.0,100,0.00,,,0.03,Wunderground v.1.15,2013-01-14 09:54:00,
2013-01-14 04:55:00,40.9,40.9,29.95,South,172,3.0,5.0,100,0.00,,,0.03,Wunderground v.1.15,2013-01-14 09:55:00,
2013-01-14 04:57:00,41.0,41.0,29.95,South,172,1.0,5.0,100,0.00,,,0.03,Wunderground v.1.15,2013-01-14 09:57:00,
2013-01-14 04:58:00,41.0,41.0,29.95,South,172,2.0,5.0,100,0.00,,,0.03,Wunderground v.1.15,2013-01-14 09:58:00,
2013-01-14 05:00:00,41.0,41.0,29.96,South,172,4.0,4.0,100,0.00,,,0.03,Wunderground v.1.15,2013-01-14 10:00:00,
2013-01-14 05:02:00,41.1,41.1,29.96,South,172,3.0,5.0,100,0.00,,,0.03,Wunderground v.1.15,2013-01-14 10:02:00,
2013-01-14 05:03:00,41.1,41.1,29.96,South,172,2.0,5.0,100,0.00,,,0.03,Wunderground v.1.15,2013-01-14 10:03:00,
2013-01-14 05:05:00,41.2,41.2,29.95,South,172,3.0,5.0,100,0.00,,,0.04,Wunderground v.1.15,2013-01-14 10:05:00,
2013-01-14 05:07:00,41.3,41.3,29.95,South,172,2.0,6.0,100,0.00,,,0.04,Wunderground v.1.15,2013-01-14 10:07:00,
2013-01-14 05:08:00,41.4,41.4,29.95,South,172,2.0,6.0,100,0.00,,,0.04,Wunderground v.1.15,2013-01-14 10:08:00,
2013-01-14 05:10:00,41.5,41.5,29.94,South,172,5.0,5.0,100,0.00,,,0.04,Wunderground v.1.15,2013-01-14 10:10:00,
2013-01-14 05:12:00,41.5,41.5,29.93,South,172,2.0,5.0,100,0.00,,,0.04,Wunderground v.1.15,2013-01-14 10:12:00,
2013-01-14 05:13:00,41.6,41.6,29.93,South,172,2.0,6.0,100,0.00,,,0.04,Wunderground v.1.15,2013-01-14 10:13:00,
2013-01-14 05:16:00,41.7,41.7,29.93,South,172,4.0,8.0,100,0.00,,,0.04,Wunderground v.1.15,2013-01-14 10:16:00,
2013-01-14 05:17:00,41.7,41.7,29.93,South,172,2.0,8.0,100,0.00,,,0.04,Wunderground v.1.15,2013-01-14 10:17:00,
2013-01-14 05:18:00,41.7,41.7,29.93,South,172,2.0,8.0,100,0.00,,,0.04,Wunderground v.1.15,2013-01-14 10:18:00,
2013-01-14 05:21:00,41.6,41.6,29.93,South,172,2.0,4.0,100,0.00,,,0.04,Wunderground v.1.15,2013-01-14 10:21:00,
2013-01-14 05:22:00,41.6,41.6,29.93,South,172,2.0,4.0,100,0.00,,,0.04,Wunderground v.1.15,2013-01-14 10:22:00,
2013-01-14 05:23:00,41.6,41.6,29.93,South,172,3.0,4.0,100,0.00,,,0.04,Wunderground v.1.15,2013-01-14 10:23:00,
2013-01-14 05:26:00,41.8,41.8,29.93,South,172,2.0,6.0,100,0.00,,,0.04,Wunderground v.1.15,2013-01-14 10:26:00,
2013-01-14 05:28:00,41.8,41.8,29.93,South,172,3.0,6.0,100,0.00,,,0.04,Wunderground v.1.15,2013-01-14 10:28:00,
2013-01-14 05:29:00,42.0,42.0,29.93,South,172,3.0,6.0,100,0.00,,,0.04,Wunderground v.1.15,2013-01-14 10:29:00,
2013-01-14 05:31:00,42.2,42.2,29.94,South,172,7.0,7.0,100,0.00,,,0.04,Wunderground v.1.15,2013-01-14 10:31:00,
2013-01-14 05:33:00,42.3,42.3,29.94,South,172,4.0,7.0,100,0.00,,,0.04,Wunderground v.1.15,2013-01-14 10:33:00,
2013-01-14 05:34:00,42.3,42.3,29.94,South,172,4.0,7.0,100,0.00,,,0.04,Wunderground v.1.15,2013-01-14 10:34:00,
2013-01-14 05:36:00,42.4,42.4,29.93,South,172,3.0,9.0,100,0.00,,,0.04,Wunderground v.1.15,2013-01-14 10:36:00,
2013-01-14 05:38:00,42.5,42.5,29.93,South,172,3.0,9.0,100,0.00,,,0.04,Wunderground v.1.15,2013-01-14 10:38:00,
2013-01-14 05:39:00,42.5,42.5,29.93,South,172,2.0,9.0,100,0.00,,,0.04,Wunderground v.1.15,2013-01-14 10:39:00,
2013-01-14 05:42:00,42.5,42.5,29.93,South,172,4.0,9.0,100,0.00,,,0.04,Wunderground v.1.15,2013-01-14 10:42:00,
2013-01-14 05:43:00,42.5,42.5,29.92,South,172,5.0,9.0,100,0.00,,,0.04,Wunderground v.1.15,2013-01-14 10:43:00,
2013-01-14 05:44:00,42.5,42.5,29.92,South,172,4.0,9.0,100,0.00,,,0.04,Wunderground v.1.15,2013-01-14 10:44:00,
2013-01-14 05:47:00,42.7,42.7,29.92,South,172,5.0,9.0,100,0.00,,,0.04,Wunderground v.1.15,2013-01-14 10:47:00,
2013-01-14 05:48:00,42.8,42.8,29.91,South,172,8.0,9.0,100,0.00,,,0.04,Wunderground v.1.15,2013-01-14 10:48:00,
2013-01-14 05:49:00,42.9,42.9,29.91,South,172,4.0,9.0,100,0.00,,,0.04,Wunderground v.1.15,2013-01-14 10:49:00,
2013-01-14 05:52:00,43.0,43.0,29.93,South,172,3.0,6.0,100,0.00,,,0.04,Wunderground v.1.15,2013-01-14 10:52:00,
2013-01-14 05:53:00,43.0,43.0,29.94,South,172,3.0,6.0,100,0.00,,,0.04,Wunderground v.1.15,2013-01-14 10:53:00,
2013-01-14 05:54:00,43.0,43.0,29.94,South,172,2.0,6.0,100,0.00,,,0.04,Wunderground v.1.15,2013-01-14 10:54:00,
2013-01-14 05:57:00,42.9,42.9,29.95,South,172,2.0,6.0,100,0.00,,,0.04,Wunderground v.1.15,2013-01-14 10:57:00,
2013-01-14 05:58:00,42.8,42.8,29.96,South,172,6.0,7.0,100,0.00,,,0.04,Wunderground v.1.15,2013-01-14 10:58:00,
2013-01-14 05:59:00,42.8,42.8,29.96,South,172,4.0,7.0,100,0.00,,,0.04,Wunderground v.1.15,2013-01-14 10:59:00,
2013-01-14 06:03:00,42.7,42.7,29.96,South,172,6.0,8.0,100,0.00,,,0.04,Wunderground v.1.15,2013-01-14 11:03:00,
2013-01-14 06:04:00,42.8,42.8,29.96,South,172,3.0,8.0,100,0.00,,,0.04,Wunderground v.1.15,2013-01-14 11:04:00,
2013-01-14 06:08:00,43.0,43.0,29.95,South,172,3.0,9.0,100,0.00,,,0.04,Wunderground v.1.15,2013-01-14 11:08:00,
2013-01-14 06:09:00,42.9,42.9,29.96,South,172,5.0,9.0,100,0.00,,,0.04,Wunderground v.1.15,2013-01-14 11:09:00,
2013-01-14 06:13:00,42.9,42.9,29.96,South,172,2.0,7.0,100,0.00,,,0.04,Wunderground v.1.15,2013-01-14 11:13:00,
2013-01-14 06:14:00,42.9,42.9,29.95,South,172,2.0,7.0,100,0.00,,,0.04,Wunderground v.1.15,2013-01-14 11:14:00,
2013-01-14 06:18:00,43.1,43.1,29.95,South,172,4.0,8.0,100,0.00,,,0.04,Wunderground v.1.15,2013-01-14 11:18:00,
2013-01-14 06:19:00,43.3,43.3,29.95,South,172,3.0,8.0,100,0.00,,,0.04,Wunderground v.1.15,2013-01-14 11:19:00,
2013-01-14 06:20:00,43.3,43.3,29.95,South,172,3.0,4.0,100,0.00,,,0.04,Wunderground v.1.15,2013-01-14 11:20:00,
2013-01-14 06:23:00,43.2,43.2,29.95,South,172,3.0,7.0,100,0.00,,,0.04,Wunderground v.1.15,2013-01-14 11:23:00,
2013-01-14 06:24:00,43.1,43.1,29.95,South,172,9.0,9.0,100,0.00,,,0.04,Wunderground v.1.15,2013-01-14 11:24:00,
2013-01-14 06:25:00,43.2,43.2,29.95,South,172,6.0,9.0,100,0.00,,,0.04,Wunderground v.1.15,2013-01-14 11:25:00,
2013-01-14 06:28:00,43.4,43.4,29.96,South,172,3.0,10.0,100,0.00,,,0.04,Wunderground v.1.15,2013-01-14 11:28:00,
2013-01-14 06:29:00,43.3,43.3,29.96,South,172,4.0,10.0,100,0.00,,,0.04,Wunderground v.1.15,2013-01-14 11:29:00,
2013-01-14 06:30:00,43.5,43.5,29.97,South,172,4.0,4.0,100,0.00,,,0.04,Wunderground v.1.15,2013-01-14 11:30:00,
2013-01-14 06:34:00,43.4,43.4,29.97,South,172,2.0,7.0,100,0.00,,,0.04,Wunderground v.1.15,2013-01-14 11:34:00,
2013-01-14 06:35:00,43.3,43.3,29.97,South,172,7.0,9.0,100,0.00,,,0.04,Wunderground v.1.15,2013-01-14 11:35:00,
2013-01-14 06:39:00,43.4,43.4,29.97,South,172,5.0,9.0,100,0.00,,,0.04,Wunderground v.1.15,2013-01-14 11:39:00,
2013-01-14 06:40:00,43.5,43.5,29.97,South,172,5.0,5.0,100,0.00,,,0.04,Wunderground v.1.15,2013-01-14 11:40:00,
2013-01-14 06:41:00,43.5,43.5,29.97,South,172,3.0,10.0,100,0.00,,,0.04,Wunderground v.1.15,2013-01-14 11:41:00,
2013-01-14 06:44:00,43.3,43.3,29.97,South,172,4.0,10.0,100,0.00,,,0.04,Wunderground v.1.15,2013-01-14 11:44:00,
2013-01-14 06:45:00,43.3,43.3,29.97,South,172,7.0,10.0,100,0.00,,,0.04,Wunderground v.1.15,2013-01-14 11:45:00,
2013-01-14 06:46:00,43.3,43.3,29.98,South,172,6.0,10.0,100,0.00,,,0.04,Wunderground v.1.15,2013-01-14 11:46:00,
2013-01-14 06:49:00,43.2,43.2,29.98,South,172,3.0,10.0,100,0.00,,,0.04,Wunderground v.1.15,2013-01-14 11:49:00,
2013-01-14 06:50:00,43.2,43.2,29.98,South,172,4.0,10.0,100,0.00,,,0.04,Wunderground v.1.15,2013-01-14 11:50:00,
2013-01-14 06:51:00,43.2,43.2,29.98,South,172,3.0,10.0,100,0.00,,,0.04,Wunderground v.1.15,2013-01-14 11:51:00,
2013-01-14 06:54:00,43.1,43.1,29.98,South,172,4.0,10.0,100,0.00,,,0.04,Wunderground v.1.15,2013-01-14 11:54:00,
2013-01-14 06:56:00,43.1,43.1,29.98,South,172,2.0,10.0,100,0.00,,,0.04,Wunderground v.1.15,2013-01-14 11:56:00,
2013-01-14 06:59:00,43.2,43.2,29.98,South,172,2.0,10.0,100,0.00,,,0.04,Wunderground v.1.15,2013-01-14 11:59:00,
2013-01-14 07:00:00,43.2,43.2,29.98,South,172,1.0,4.0,100,0.00,,,0.04,Wunderground v.1.15,2013-01-14 12:00:00,
2013-01-14 07:02:00,43.2,43.2,29.98,South,172,4.0,4.0,100,0.00,,,0.04,Wunderground v.1.15,2013-01-14 12:02:00,
2013-01-14 07:04:00,43.2,43.2,29.98,South,172,4.0,6.0,100,0.00,,,0.04,Wunderground v.1.15,2013-01-14 12:04:00,
2013-01-14 07:05:00,43.2,43.2,29.98,South,172,2.0,6.0,100,0.00,,,0.04,Wunderground v.1.15,2013-01-14 12:05:00,
2013-01-14 07:07:00,43.3,43.3,29.98,South,172,3.0,6.0,100,0.00,,,0.04,Wunderground v.1.15,2013-01-14 12:07:00,
2013-01-14 07:09:00,43.2,43.2,29.98,South,172,3.0,7.0,100,0.00,,,0.04,Wunderground v.1.15,2013-01-14 12:09:00,
2013-01-14 07:10:00,43.2,43.2,29.98,South,172,4.0,4.0,100,0.00,,,0.04,Wunderground v.1.15,2013-01-14 12:10:00,
2013-01-14 07:12:00,43.2,43.2,29.98,South,172,2.0,5.0,100,0.00,,,0.04,Wunderground v.1.15,2013-01-14 12:12:00,
2013-01-14 07:14:00,43.2,43.2,29.98,South,172,2.0,5.0,100,0.00,,,0.04,Wunderground v.1.15,2013-01-14 12:14:00,
2013-01-14 07:15:00,43.2,43.2,29.98,South,172,4.0,5.0,100,0.00,,,0.04,Wunderground v.1.15,2013-01-14 12:15:00,
2013-01-14 07:17:00,43.3,43.3,29.98,South,172,4.0,9.0,100,0.00,,,0.04,Wunderground v.1.15,2013-01-14 12:17:00,
2013-01-14 07:18:00,43.4,43.4,29.98,South,172,1.0,9.0,100,0.00,,,0.04,Wunderground v.1.15,2013-01-14 12:18:00,
2013-01-14 07:19:00,43.4,43.4,29.98,South,172,2.0,9.0,100,0.00,,,0.04,Wunderground v.1.15,2013-01-14 12:19:00,
2013-01-14 07:21:00,43.5,43.5,29.98,South,172,1.0,3.0,100,0.00,,,0.04,Wunderground v.1.15,2013-01-14 12:21:00,
2013-01-14 07:23:00,43.4,43.4,29.98,South,172,3.0,3.0,100,0.00,,,0.04,Wunderground v.1.15,2013-01-14 12:23:00,
2013-01-14 07:24:00,43.3,43.3,29.98,South,172,4.0,4.0,100,0.00,,,0.04,Wunderground v.1.15,2013-01-14 12:24:00,
2013-01-14 07:26:00,43.5,43.5,29.99,South,172,1.0,4.0,100,0.00,,,0.04,Wunderground v.1.15,2013-01-14 12:26:00,
2013-01-14 07:28:00,43.7,43.7,29.99,South,172,1.0,5.0,100,0.00,,,0.04,Wunderground v.1.15,2013-01-14 12:28:00,
2013-01-14 07:29:00,43.8,43.8,29.99,South,172,4.0,5.0,100,0.00,,,0.04,Wunderground v.1.15,2013-01-14 12:29:00,
2013-01-14 07:31:00,43.9,43.9,29.99,South,172,0.0,2.0,100,0.00,,,0.04,Wunderground v.1.15,2013-01-14 12:31:00,
2013-01-14 07:33:00,43.8,43.8,29.99,South,172,1.0,2.0,100,0.00,,,0.04,Wunderground v.1.15,2013-01-14 12:33:00,
2013-01-14 07:34:00,43.9,43.9,30.00,South,172,2.0,6.0,100,0.00,,,0.04,Wunderground v.1.15,2013-01-14 12:34:00,
2013-01-14 07:36:00,44.1,44.1,30.00,South,172,2.0,6.0,100,0.00,,,0.04,Wunderground v.1.15,2013-01-14 12:36:00,
2013-01-14 07:38:00,44.2,44.2,30.00,South,172,1.0,6.0,100,0.00,,,0.04,Wunderground v.1.15,2013-01-14 12:38:00,
2013-01-14 07:40:00,44.1,44.1,30.00,South,172,1.0,1.0,100,0.00,,,0.04,Wunderground v.1.15,2013-01-14 12:40:00,
2013-01-14 07:42:00,44.1,44.1,29.99,South,172,1.0,2.0,100,0.00,,,0.04,Wunderground v.1.15,2013-01-14 12:42:00,
2013-01-14 07:43:00,44.1,44.1,29.99,South,172,1.0,2.0,100,0.00,,,0.04,Wunderground v.1.15,2013-01-14 12:43:00,
2013-01-14 07:45:00,43.9,43.9,29.99,South,172,2.0,2.0,100,0.00,,,0.04,Wunderground v.1.15,2013-01-14 12:45:00,
2013-01-14 07:47:00,44.1,44.1,29.99,South,172,1.0,2.0,100,0.00,,,0.04,Wunderground v.1.15,2013-01-14 12:47:00,
2013-01-14 07:48:00,44.2,44.2,29.99,South,172,1.0,3.0,100,0.00,,,0.04,Wunderground v.1.15,2013-01-14 12:48:00,
2013-01-14 07:50:00,44.3,44.3,29.99,South,172,3.0,3.0,100,0.00,,,0.04,Wunderground v.1.15,2013-01-14 12:50:00,
2013-01-14 07:52:00,44.3,44.3,29.99,South,172,1.0,3.0,100,0.00,,,0.04,Wunderground v.1.15,2013-01-14 12:52:00,
2013-01-14 07:53:00,44.4,44.4,29.99,South,172,2.0,3.0,100,0.00,,,0.04,Wunderground v.1.15,2013-01-14 12:53:00,
2013-01-14 07:54:00,44.4,44.4,29.99,South,172,1.0,3.0,100,0.00,,,0.04,Wunderground v.1.15,2013-01-14 12:54:00,
2013-01-14 07:55:00,44.2,44.2,30.00,South,172,1.0,3.0,100,0.00,,,0.04,Wunderground v.1.15,2013-01-14 12:55:00,
2013-01-14 07:57:00,44.2,44.2,30.00,South,172,1.0,3.0,100,0.00,,,0.04,Wunderground v.1.15,2013-01-14 12:57:00,
2013-01-14 07:58:00,44.3,44.3,30.00,South,172,2.0,3.0,100,0.00,,,0.04,Wunderground v.1.15,2013-01-14 12:58:00,
2013-01-14 07:59:00,44.3,44.3,30.00,South,172,2.0,3.0,100,0.00,,,0.04,Wunderground v.1.15,2013-01-14 12:59:00,
2013-01-14 08:00:00,44.3,44.3,30.00,South,172,2.0,2.0,100,0.00,,,0.04,Wunderground v.1.15,2013-01-14 13:00:00,
2013-01-14 08:02:00,44.2,44.2,30.00,South,172,0.0,2.0,100,0.00,,,0.04,Wunderground v.1.15,2013-01-14 13:02:00,
2013-01-14 08:03:00,44.1,44.1,30.00,South,172,1.0,2.0,100,0.00,,,0.04,Wunderground v.1.15,2013-01-14 13:03:00,
2013-01-14 08:04:00,44.1,44.1,30.00,South,172,1.0,2.0,100,0.00,,,0.04,Wunderground v.1.15,2013-01-14 13:04:00,
2013-01-14 08:05:00,44.0,44.0,30.01,South,172,1.0,2.0,100,0.00,,,0.04,Wunderground v.1.15,2013-01-14 13:05:00,
2013-01-14 08:07:00,43.9,43.9,30.02,South,172,4.0,4.0,100,0.00,,,0.04,Wunderground v.1.15,2013-01-14 13:07:00,
2013-01-14 08:08:00,44.3,44.3,30.01,South,172,3.0,6.0,100,0.00,,,0.04,Wunderground v.1.15,2013-01-14 13:08:00,
2013-01-14 08:09:00,44.4,44.4,30.02,South,172,1.0,6.0,100,0.00,,,0.04,Wunderground v.1.15,2013-01-14 13:09:00,
2013-01-14 08:10:00,44.4,44.4,30.02,South,172,3.0,11.0,100,0.00,,,0.04,Wunderground v.1.15,2013-01-14 13:10:00,
2013-01-14 08:12:00,44.7,44.7,30.02,South,172,0.0,11.0,100,0.00,,,0.04,Wunderground v.1.15,2013-01-14 13:12:00,
2013-01-14 08:13:00,44.8,44.8,30.02,South,172,1.0,11.0,100,0.00,,,0.04,Wunderground v.1.15,2013-01-14 13:13:00,
2013-01-14 08:15:00,44.6,44.6,30.02,South,172,1.0,11.0,100,0.00,,,0.04,Wunderground v.1.15,2013-01-14 13:15:00,
2013-01-14 08:16:00,44.5,44.5,30.02,South,172,1.0,11.0,100,0.00,,,0.04,Wunderground v.1.15,2013-01-14 13:16:00,
2013-01-14 08:17:00,44.6,44.6,30.02,South,172,0.0,11.0,100,0.00,,,0.04,Wunderground v.1.15,2013-01-14 13:17:00,
2013-01-14 08:18:00,44.5,44.5,30.02,South,172,1.0,11.0,100,0.00,,,0.04,Wunderground v.1.15,2013-01-14 13:18:00,
2013-01-14 08:20:00,44.4,44.4,30.02,South,172,1.0,1.0,100,0.00,,,0.04,Wunderground v.1.15,2013-01-14 13:20:00,
2013-01-14 08:21:00,44.3,44.3,30.02,South,172,1.0,2.0,100,0.00,,,0.04,Wunderground v.1.15,2013-01-14 13:21:00,
2013-01-14 08:22:00,44.2,44.2,30.02,South,172,0.0,2.0,100,0.00,,,0.04,Wunderground v.1.15,2013-01-14 13:22:00,
2013-01-14 08:23:00,44.1,44.1,30.02,South,172,0.0,2.0,100,0.00,,,0.04,Wunderground v.1.15,2013-01-14 13:23:00,
2013-01-14 08:25:00,44.0,44.0,30.02,South,172,1.0,3.0,100,0.00,,,0.04,Wunderground v.1.15,2013-01-14 13:25:00,
2013-01-14 08:26:00,44.3,44.3,30.02,South,172,2.0,4.0,100,0.00,,,0.04,Wunderground v.1.15,2013-01-14 13:26:00,
2013-01-14 08:28:00,44.5,44.5,30.03,South,172,2.0,6.0,100,0.00,,,0.04,Wunderground v.1.15,2013-01-14 13:28:00,
2013-01-14 08:30:00,44.6,44.6,30.03,South,172,1.0,2.0,100,0.00,,,0.04,Wunderground v.1.15,2013-01-14 13:30:00,
2013-01-14 08:32:00,44.5,44.5,30.03,South,172,1.0,2.0,100,0.00,,,0.04,Wunderground v.1.15,2013-01-14 13:32:00,
2013-01-14 08:33:00,44.5,44.5,30.03,South,172,1.0,2.0,100,0.00,,,0.04,Wunderground v.1.15,2013-01-14 13:33:00,
2013-01-14 08:35:00,44.4,44.4,30.03,South,172,0.0,3.0,100,0.00,,,0.04,Wunderground v.1.15,2013-01-14 13:35:00,
2013-01-14 08:37:00,44.4,44.4,30.03,South,172,0.0,3.0,100,0.00,,,0.04,Wunderground v.1.15,2013-01-14 13:37:00,
2013-01-14 08:38:00,44.3,44.3,30.03,South,172,1.0,3.0,100,0.00,,,0.04,Wunderground v.1.15,2013-01-14 13:38:00,
2013-01-14 08:39:00,44.3,44.3,30.03,South,172,2.0,3.0,100,0.00,,,0.04,Wunderground v.1.15,2013-01-14 13:39:00,
2013-01-14 08:40:00,44.2,44.2,30.03,South,172,2.0,3.0,100,0.00,,,0.04,Wunderground v.1.15,2013-01-14 13:40:00,
2013-01-14 08:42:00,44.2,44.2,30.04,South,172,2.0,6.0,100,0.00,,,0.04,Wunderground v.1.15,2013-01-14 13:42:00,
2013-01-14 08:43:00,44.2,44.2,30.04,South,172,3.0,6.0,100,0.00,,,0.04,Wunderground v.1.15,2013-01-14 13:43:00,
2013-01-14 08:44:00,44.2,44.2,30.04,South,172,3.0,6.0,100,0.00,,,0.04,Wunderground v.1.15,2013-01-14 13:44:00,
2013-01-14 08:45:00,44.2,44.2,30.04,South,172,1.0,6.0,100,0.00,,,0.04,Wunderground v.1.15,2013-01-14 13:45:00,
2013-01-14 08:47:00,44.1,44.1,30.03,South,172,1.0,6.0,100,0.00,,,0.04,Wunderground v.1.15,2013-01-14 13:47:00,
2013-01-14 08:48:00,44.2,44.2,30.04,South,172,0.0,6.0,100,0.00,,,0.04,Wunderground v.1.15,2013-01-14 13:48:00,
2013-01-14 08:49:00,44.2,44.2,30.04,South,172,1.0,6.0,100,0.00,,,0.04,Wunderground v.1.15,2013-01-14 13:49:00,
2013-01-14 08:50:00,44.1,44.1,30.04,South,172,3.0,3.0,100,0.00,,,0.04,Wunderground v.1.15,2013-01-14 13:50:00,
2013-01-14 08:52:00,44.0,44.0,30.04,South,172,2.0,3.0,100,0.00,,,0.04,Wunderground v.1.15,2013-01-14 13:52:00,
2013-01-14 08:53:00,44.0,44.0,30.04,South,172,1.0,3.0,100,0.00,,,0.04,Wunderground v.1.15,2013-01-14 13:53:00,
2013-01-14 08:54:00,44.0,44.0,30.05,South,172,0.0,3.0,100,0.00,,,0.04,Wunderground v.1.15,2013-01-14 13:54:00,
2013-01-14 08:55:00,44.1,44.1,30.05,South,172,2.0,4.0,100,0.00,,,0.04,Wunderground v.1.15,2013-01-14 13:55:00,
2013-01-14 08:57:00,44.1,44.1,30.05,South,172,2.0,4.0,100,0.00,,,0.04,Wunderground v.1.15,2013-01-14 13:57:00,
2013-01-14 08:58:00,44.1,44.1,30.05,South,172,1.0,4.0,100,0.00,,,0.04,Wunderground v.1.15,2013-01-14 13:58:00,
2013-01-14 08:59:00,44.0,44.0,30.05,South,172,3.0,4.0,100,0.00,,,0.04,Wunderground v.1.15,2013-01-14 13:59:00,
2013-01-14 09:02:00,44.3,44.3,30.05,South,172,1.0,3.0,100,0.00,,,0.04,Wunderground v.1.15,2013-01-14 14:02:00,
2013-01-14 09:03:00,44.4,44.4,30.05,South,172,1.0,6.0,100,0.00,,,0.04,Wunderground v.1.15,2013-01-14 14:03:00,
2013-01-14 09:04:00,44.6,44.6,30.05,South,172,1.0,6.0,100,0.00,,,0.04,Wunderground v.1.15,2013-01-14 14:04:00,
2013-01-14 09:07:00,44.8,44.8,30.05,South,172,2.0,6.0,100,0.00,,,0.04,Wunderground v.1.15,2013-01-14 14:07:00,
2013-01-14 09:08:00,44.9,44.9,30.05,South,172,3.0,7.0,100,0.00,,,0.04,Wunderground v.1.15,2013-01-14 14:08:00,
2013-01-14 09:09:00,45.0,45.0,30.05,South,172,2.0,7.0,100,0.00,,,0.04,Wunderground v.1.15,2013-01-14 14:09:00,
2013-01-14 09:12:00,45.0,45.0,30.04,South,172,1.0,5.0,100,0.00,,,0.04,Wunderground v.1.15,2013-01-14 14:12:00,
2013-01-14 09:13:00,44.9,44.9,30.04,South,172,0.0,5.0,100,0.00,,,0.04,Wunderground v.1.15,2013-01-14 14:13:00,
2013-01-14 09:14:00,45.0,45.0,30.04,South,172,3.0,7.0,100,0.00,,,0.04,Wunderground v.1.15,2013-01-14 14:14:00,
2013-01-14 09:17:00,45.1,45.1,30.04,South,172,0.0,7.0,100,0.00,,,0.04,Wunderground v.1.15,2013-01-14 14:17:00,
2013-01-14 09:18:00,45.1,45.1,30.04,South,172,1.0,7.0,100,0.00,,,0.04,Wunderground v.1.15,2013-01-14 14:18:00,
2013-01-14 09:19:00,45.1,45.1,30.04,South,172,4.0,7.0,100,0.00,,,0.04,Wunderground v.1.15,2013-01-14 14:19:00,
2013-01-14 09:22:00,45.2,45.2,30.04,South,172,3.0,4.0,100,0.00,,,0.04,Wunderground v.1.15,2013-01-14 14:22:00,
2013-01-14 09:23:00,45.3,45.3,30.04,South,172,2.0,5.0,100,0.00,,,0.04,Wunderground v.1.15,2013-01-14 14:23:00,
2013-01-14 09:24:00,45.3,45.3,30.04,South,172,2.0,5.0,100,0.00,,,0.04,Wunderground v.1.15,2013-01-14 14:24:00,
2013-01-14 09:25:00,45.6,45.6,30.04,South,172,2.0,8.0,100,0.00,,,0.04,Wunderground v.1.15,2013-01-14 14:25:00,
2013-01-14 09:28:00,45.7,45.7,30.04,South,172,4.0,8.0,100,0.00,,,0.04,Wunderground v.1.15,2013-01-14 14:28:00,
2013-01-14 09:29:00,45.8,45.8,30.04,South,172,1.0,8.0,100,0.00,,,0.04,Wunderground v.1.15,2013-01-14 14:29:00,
2013-01-14 09:30:00,46.0,46.0,30.04,South,172,1.0,2.0,100,0.00,,,0.04,Wunderground v.1.15,2013-01-14 14:30:00,
2013-01-14 09:33:00,45.8,45.8,30.04,South,172,3.0,4.0,100,0.00,,,0.04,Wunderground v.1.15,2013-01-14 14:33:00,
2013-01-14 09:34:00,45.9,45.9,30.04,South,172,1.0,4.0,100,0.00,,,0.04,Wunderground v.1.15,2013-01-14 14:34:00,
2013-01-14 09:36:00,46.2,46.2,30.04,South,172,1.0,6.0,100,0.00,,,0.04,Wunderground v.1.15,2013-01-14 14:36:00,
2013-01-14 09:38:00,46.3,46.3,30.04,South,172,1.0,6.0,100,0.00,,,0.04,Wunderground v.1.15,2013-01-14 14:38:00,
2013-01-14 09:39:00,46.4,46.4,30.04,South,172,3.0,6.0,100,0.00,,,0.04,Wunderground v.1.15,2013-01-14 14:39:00,
2013-01-14 09:41:00,46.5,46.5,30.04,South,172,0.0,3.0,100,0.00,,,0.04,Wunderground v.1.15,2013-01-14 14:41:00,
2013-01-14 09:44:00,46.4,46.4,30.04,South,172,0.0,4.0,100,0.00,,,0.04,Wunderground v.1.15,2013-01-14 14:44:00,
2013-01-14 09:46:00,46.2,46.2,30.04,South,172,1.0,4.0,100,0.00,,,0.04,Wunderground v.1.15,2013-01-14 14:46:00,
2013-01-14 09:49:00,46.1,46.1,30.04,South,172,2.0,5.0,100,0.00,,,0.04,Wunderground v.1.15,2013-01-14 14:49:00,
2013-01-14 09:51:00,46.0,46.0,30.04,South,172,1.0,4.0,100,0.00,,,0.04,Wunderground v.1.15,2013-01-14 14:51:00,
2013-01-14 09:54:00,45.7,45.7,30.04,South,172,0.0,4.0,100,0.00,,,0.04,Wunderground v.1.15,2013-01-14 14:54:00,
2013-01-14 09:56:00,45.5,45.5,30.04,South,172,0.0,4.0,100,0.00,,,0.04,Wunderground v.1.15,2013-01-14 14:56:00,
2013-01-14 09:59:00,45.3,45.3,30.04,South,172,0.0,4.0,100,0.00,,,0.04,Wunderground v.1.15,2013-01-14 14:59:00,
2013-01-14 10:01:00,45.5,45.5,30.05,South,172,0.0,0.0,100,0.00,,,0.04,Wunderground v.1.15,2013-01-14 15:01:00,
2013-01-14 10:04:00,46.0,46.0,30.05,South,172,2.0,4.0,100,0.00,,,0.04,Wunderground v.1.15,2013-01-14 15:04:00,
2013-01-14 10:06:00,46.4,46.4,30.05,South,172,2.0,4.0,100,0.00,,,0.04,Wunderground v.1.15,2013-01-14 15:06:00,
2013-01-14 10:09:00,46.7,46.7,30.05,South,172,0.0,4.0,100,0.00,,,0.04,Wunderground v.1.15,2013-01-14 15:09:00,
2013-01-14 10:10:00,46.7,46.7,30.05,South,172,3.0,4.0,100,0.00,,,0.04,Wunderground v.1.15,2013-01-14 15:10:00,
2013-01-14 10:11:00,46.9,46.9,30.04,South,172,3.0,4.0,100,0.00,,,0.04,Wunderground v.1.15,2013-01-14 15:11:00,
2013-01-14 10:14:00,47.3,47.3,30.05,South,172,3.0,5.0,100,0.00,,,0.04,Wunderground v.1.15,2013-01-14 15:14:00,
2013-01-14 10:15:00,47.3,47.3,30.05,South,172,3.0,6.0,100,0.00,,,0.04,Wunderground v.1.15,2013-01-14 15:15:00,
2013-01-14 10:16:00,47.6,47.6,30.04,South,172,3.0,6.0,100,0.00,,,0.04,Wunderground v.1.15,2013-01-14 15:16:00,
2013-01-14 10:19:00,47.8,47.8,30.04,South,172,6.0,6.0,100,0.00,,,0.04,Wunderground v.1.15,2013-01-14 15:19:00,
2013-01-14 10:20:00,47.8,47.8,30.04,South,172,3.0,4.0,100,0.00,,,0.04,Wunderground v.1.15,2013-01-14 15:20:00,
2013-01-14 10:21:00,47.9,47.9,30.04,South,172,2.0,5.0,100,0.00,,,0.04,Wunderground v.1.15,2013-01-14 15:21:00,
2013-01-14 10:24:00,48.1,48.1,30.04,South,172,3.0,5.0,100,0.00,,,0.04,Wunderground v.1.15,2013-01-14 15:24:00,
2013-01-14 10:25:00,48.2,48.2,30.04,South,172,6.0,6.0,100,0.00,,,0.04,Wunderground v.1.15,2013-01-14 15:25:00,
2013-01-14 10:27:00,48.4,48.4,30.04,South,172,5.0,6.0,100,0.00,,,0.04,Wunderground v.1.15,2013-01-14 15:27:00,
2013-01-14 10:30:00,48.6,48.3,30.04,South,172,3.0,6.0,99,0.00,,,0.04,Wunderground v.1.15,2013-01-14 15:30:00,
2013-01-14 10:32:00,48.8,48.3,30.04,South,172,4.0,5.0,98,0.00,,,0.04,Wunderground v.1.15,2013-01-14 15:32:00,
2013-01-14 10:35:00,49.2,48.1,30.04,South,172,2.0,5.0,96,0.00,,,0.04,Wunderground v.1.15,2013-01-14 15:35:00,
2013-01-14 10:36:00,49.3,48.2,30.04,South,172,1.0,5.0,96,0.00,,,0.04,Wunderground v.1.15,2013-01-14 15:36:00,
2013-01-14 10:37:00,49.4,48.3,30.04,South,172,3.0,5.0,96,0.00,,,0.04,Wunderground v.1.15,2013-01-14 15:37:00,
2013-01-14 10:40:00,49.5,48.1,30.04,South,172,2.0,2.0,95,0.00,,,0.04,Wunderground v.1.15,2013-01-14 15:40:00,
2013-01-14 10:41:00,49.6,48.2,30.04,South,172,3.0,3.0,95,0.00,,,0.04,Wunderground v.1.15,2013-01-14 15:41:00,
2013-01-14 10:42:00,49.7,48.0,30.04,South,172,3.0,6.0,94,0.00,,,0.04,Wunderground v.1.15,2013-01-14 15:42:00,
2013-01-14 10:45:00,49.9,48.0,30.04,South,172,3.0,6.0,93,0.00,,,0.04,Wunderground v.1.15,2013-01-14 15:45:00,
2013-01-14 10:46:00,50.0,48.1,30.04,South,172,9.0,10.0,93,0.00,,,0.04,Wunderground v.1.15,2013-01-14 15:46:00,
2013-01-14 10:47:00,50.1,47.9,30.04,South,172,0.0,10.0,92,0.00,,,0.04,Wunderground v.1.15,2013-01-14 15:47:00,
2013-01-14 10:50:00,50.3,48.1,30.04,South,172,2.0,5.0,92,0.00,,,0.04,Wunderground v.1.15,2013-01-14 15:50:00,
2013-01-14 10:51:00,50.4,47.9,30.04,South,172,3.0,5.0,91,0.00,,,0.04,Wunderground v.1.15,2013-01-14 15:51:00,
2013-01-14 10:52:00,50.4,47.6,30.04,South,172,3.0,5.0,90,0.00,,,0.04,Wunderground v.1.15,2013-01-14 15:52:00,
2013-01-14 10:55:00,50.6,47.8,30.04,South,172,1.0,5.0,90,0.00,,,0.04,Wunderground v.1.15,2013-01-14 15:55:00,
2013-01-14 10:56:00,50.7,47.9,30.04,South,172,0.0,5.0,90,0.00,,,0.04,Wunderground v.1.15,2013-01-14 15:56:00,
2013-01-14 10:57:00,50.8,48.0,30.04,South,172,2.0,5.0,90,0.00,,,0.04,Wunderground v.1.15,2013-01-14 15:57:00,
2013-01-14 11:01:00,51.0,47.3,30.04,South,172,4.0,9.0,87,0.00,,,0.04,Wunderground v.1.15,2013-01-14 16:01:00,
2013-01-14 11:02:00,51.0,47.3,30.04,South,172,4.0,9.0,87,0.00,,,0.04,Wunderground v.1.15,2013-01-14 16:02:00,
2013-01-14 11:06:00,51.4,47.4,30.04,South,172,3.0,9.0,86,0.00,,,0.04,Wunderground v.1.15,2013-01-14 16:06:00,
2013-01-14 11:07:00,51.4,47.4,30.04,South,172,2.0,9.0,86,0.00,,,0.04,Wunderground v.1.15,2013-01-14 16:07:00,
2013-01-14 11:12:00,51.5,47.1,30.05,South,172,2.0,5.0,85,0.00,,,0.04,Wunderground v.1.15,2013-01-14 16:12:00,
2013-01-14 11:17:00,51.6,46.9,30.05,South,172,4.0,8.0,84,0.00,,,0.04,Wunderground v.1.15,2013-01-14 16:17:00,
2013-01-14 11:22:00,51.8,47.4,30.04,South,172,1.0,5.0,85,0.00,,,0.04,Wunderground v.1.15,2013-01-14 16:22:00,
2013-01-14 11:27:00,51.9,47.2,30.04,South,172,3.0,6.0,84,0.00,,,0.04,Wunderground v.1.15,2013-01-14 16:27:00,
2013-01-14 11:32:00,52.1,47.7,30.04,South,172,3.0,4.0,85,0.00,,,0.04,Wunderground v.1.15,2013-01-14 16:32:00,
2013-01-14 11:33:00,52.1,47.4,30.04,South,172,3.0,4.0,84,0.00,,,0.04,Wunderground v.1.15,2013-01-14 16:33:00,
2013-01-14 11:37:00,52.2,46.2,30.04,South,172,2.0,9.0,80,0.00,,,0.04,Wunderground v.1.15,2013-01-14 16:37:00,
2013-01-14 11:38:00,52.2,46.2,30.04,South,172,1.0,9.0,80,0.00,,,0.04,Wunderground v.1.15,2013-01-14 16:38:00,
2013-01-14 11:39:00,52.2,46.2,30.04,South,172,0.0,9.0,80,0.00,,,0.04,Wunderground v.1.15,2013-01-14 16:39:00,
2013-01-14 11:42:00,52.5,46.5,30.05,South,172,1.0,4.0,80,0.00,,,0.04,Wunderground v.1.15,2013-01-14 16:42:00,
2013-01-14 11:44:00,52.5,46.5,30.05,South,172,2.0,4.0,80,0.00,,,0.04,Wunderground v.1.15,2013-01-14 16:44:00,
2013-01-14 11:48:00,52.7,46.0,30.05,South,172,0.0,7.0,78,0.00,,,0.04,Wunderground v.1.15,2013-01-14 16:48:00,
2013-01-14 11:49:00,52.7,46.0,30.05,South,172,0.0,7.0,78,0.00,,,0.04,Wunderground v.1.15,2013-01-14 16:49:00,
2013-01-14 11:53:00,52.6,45.6,30.05,South,172,0.0,5.0,77,0.00,,,0.04,Wunderground v.1.15,2013-01-14 16:53:00,
2013-01-14 11:54:00,52.6,45.6,30.05,South,172,2.0,5.0,77,0.00,,,0.04,Wunderground v.1.15,2013-01-14 16:54:00,
2013-01-14 11:55:00,52.6,45.6,30.05,South,172,1.0,5.0,77,0.00,,,0.04,Wunderground v.1.15,2013-01-14 16:55:00,
2013-01-14 11:58:00,52.5,45.5,30.06,South,172,3.0,5.0,77,0.00,,,0.04,Wunderground v.1.15,2013-01-14 16:58:00,
2013-01-14 11:59:00,52.6,45.6,30.05,South,172,1.0,5.0,77,0.00,,,0.04,Wunderground v.1.15,2013-01-14 16:59:00,
2013-01-14 12:00:00,52.6,45.2,30.06,South,172,1.0,1.0,76,0.00,,,0.04,Wunderground v.1.15,2013-01-14 17:00:00,
2013-01-14 12:03:00,52.8,45.4,30.06,South,172,3.0,3.0,76,0.00,,,0.04,Wunderground v.1.15,2013-01-14 17:03:00,
2013-01-14 12:04:00,52.7,45.3,30.06,South,172,2.0,4.0,76,0.00,,,0.04,Wunderground v.1.15,2013-01-14 17:04:00,
2013-01-14 12:05:00,52.7,45.3,30.06,South,172,0.0,4.0,76,0.00,,,0.04,Wunderground v.1.15,2013-01-14 17:05:00,
2013-01-14 12:08:00,52.7,45.0,30.06,South,172,0.0,4.0,75,0.00,,,0.04,Wunderground v.1.15,2013-01-14 17:08:00,
2013-01-14 12:09:00,52.8,45.1,30.06,South,172,3.0,4.0,75,0.00,,,0.04,Wunderground v.1.15,2013-01-14 17:09:00,
2013-01-14 12:10:00,52.8,45.4,30.06,South,172,1.0,2.0,76,0.00,,,0.04,Wunderground v.1.15,2013-01-14 17:10:00,
2013-01-14 12:13:00,52.7,45.0,30.06,South,172,4.0,4.0,75,0.00,,,0.04,Wunderground v.1.15,2013-01-14 17:13:00,
2013-01-14 12:14:00,52.6,44.9,30.06,South,172,3.0,6.0,75,0.00,,,0.04,Wunderground v.1.15,2013-01-14 17:14:00,
2013-01-14 12:15:00,52.6,45.2,30.07,South,172,3.0,6.0,76,0.00,,,0.04,Wunderground v.1.15,2013-01-14 17:15:00,
2013-01-14 12:18:00,52.6,45.2,30.06,South,172,1.0,6.0,76,0.00,,,0.04,Wunderground v.1.15,2013-01-14 17:18:00,
2013-01-14 12:20:00,52.6,44.9,30.07,South,172,0.0,2.0,75,0.00,,,0.04,Wunderground v.1.15,2013-01-14 17:20:00,
2013-01-14 12:23:00,52.7,45.3,30.07,South,172,1.0,8.0,76,0.00,,,0.04,Wunderground v.1.15,2013-01-14 17:23:00,
2013-01-14 12:24:00,52.7,45.3,30.07,South,172,2.0,8.0,76,0.00,,,0.04,Wunderground v.1.15,2013-01-14 17:24:00,
2013-01-14 12:25:00,52.6,44.9,30.07,South,172,0.0,8.0,75,0.00,,,0.04,Wunderground v.1.15,2013-01-14 17:25:00,
2013-01-14 12:28:00,52.4,44.7,30.07,South,172,0.0,8.0,75,0.00,,,0.04,Wunderground v.1.15,2013-01-14 17:28:00,
2013-01-14 12:29:00,52.3,44.6,30.07,South,172,0.0,8.0,75,0.00,,,0.04,Wunderground v.1.15,2013-01-14 17:29:00,
2013-01-14 12:30:00,52.3,45.0,30.08,South,172,0.0,1.0,76,0.00,,,0.04,Wunderground v.1.15,2013-01-14 17:30:00,
2013-01-14 12:34:00,52.1,44.8,30.08,South,172,1.0,4.0,76,0.00,,,0.04,Wunderground v.1.15,2013-01-14 17:34:00,
2013-01-14 12:35:00,52.1,44.1,30.08,South,172,1.0,4.0,74,0.00,,,0.04,Wunderground v.1.15,2013-01-14 17:35:00,
2013-01-14 12:39:00,52.1,44.8,30.09,South,172,0.0,5.0,76,0.00,,,0.04,Wunderground v.1.15,2013-01-14 17:39:00,
2013-01-14 12:40:00,52.0,44.7,30.09,South,172,1.0,1.0,76,0.00,,,0.04,Wunderground v.1.15,2013-01-14 17:40:00,
2013-01-14 12:44:00,51.2,43.5,30.09,South,172,1.0,8.0,75,0.00,,,0.04,Wunderground v.1.15,2013-01-14 17:44:00,
2013-01-14 12:45:00,50.8,43.5,30.09,South,172,0.0,8.0,76,0.00,,,0.04,Wunderground v.1.15,2013-01-14 17:45:00,
2013-01-14 12:46:00,50.4,43.5,30.09,South,172,2.0,8.0,77,0.00,,,0.04,Wunderground v.1.15,2013-01-14 17:46:00,
2013-01-14 12:49:00,49.5,42.9,30.09,South,172,1.0,8.0,78,0.00,,,0.04,Wunderground v.1.15,2013-01-14 17:49:00,
2013-01-14 12:50:00,49.2,42.6,30.09,South,172,1.0,2.0,78,0.00,,,0.04,Wunderground v.1.15,2013-01-14 17:50:00,
2013-01-14 12:51:00,49.0,42.8,30.09,South,172,1.0,2.0,79,0.00,,,0.04,Wunderground v.1.15,2013-01-14 17:51:00,
2013-01-14 12:52:00,48.8,42.6,30.09,South,172,0.0,2.0,79,0.00,,,0.04,Wunderground v.1.15,2013-01-14 17:52:00,
2013-01-14 12:54:00,48.5,42.0,30.09,South,172,0.0,4.0,78,0.00,,,0.04,Wunderground v.1.15,2013-01-14 17:54:00,
2013-01-14 12:55:00,48.6,42.4,30.09,South,172,0.0,4.0,79,0.00,,,0.04,Wunderground v.1.15,2013-01-14 17:55:00,
2013-01-14 12:56:00,48.6,42.4,30.09,South,172,0.0,4.0,79,0.00,,,0.04,Wunderground v.1.15,2013-01-14 17:56:00,
2013-01-14 12:57:00,48.7,42.8,30.09,South,172,0.0,4.0,80,0.00,,,0.04,Wunderground v.1.15,2013-01-14 17:57:00,
2013-01-14 12:59:00,48.8,41.9,30.09,South,172,1.0,4.0,77,0.00,,,0.04,Wunderground v.1.15,2013-01-14 17:59:00,
2013-01-14 13:02:00,48.9,42.0,30.09,South,172,1.0,3.0,77,0.00,,,0.04,Wunderground v.1.15,2013-01-14 18:02:00,
2013-01-14 13:04:00,49.2,42.0,30.09,South,172,2.0,3.0,76,0.00,,,0.04,Wunderground v.1.15,2013-01-14 18:04:00,
2013-01-14 13:07:00,49.3,41.7,30.09,South,172,1.0,3.0,75,0.00,,,0.04,Wunderground v.1.15,2013-01-14 18:07:00,
2013-01-14 13:10:00,49.3,42.1,30.09,South,172,0.0,6.0,76,0.00,,,0.04,Wunderground v.1.15,2013-01-14 18:10:00,
2013-01-14 13:12:00,49.2,41.3,30.09,South,172,1.0,4.0,74,0.00,,,0.04,Wunderground v.1.15,2013-01-14 18:12:00,
2013-01-14 13:15:00,49.1,41.2,30.09,South,172,3.0,8.0,74,0.00,,,0.04,Wunderground v.1.15,2013-01-14 18:15:00,
2013-01-14 13:17:00,49.1,41.2,30.09,South,172,0.0,8.0,74,0.00,,,0.04,Wunderground v.1.15,2013-01-14 18:17:00,
2013-01-14 13:20:00,49.2,41.6,30.09,South,172,0.0,2.0,75,0.00,,,0.04,Wunderground v.1.15,2013-01-14 18:20:00,
2013-01-14 13:22:00,49.3,41.4,30.09,South,172,3.0,4.0,74,0.00,,,0.04,Wunderground v.1.15,2013-01-14 18:22:00,
2013-01-14 13:26:00,49.2,40.6,30.10,South,172,4.0,6.0,72,0.00,,,0.04,Wunderground v.1.15,2013-01-14 18:26:00,
2013-01-14 13:27:00,49.1,40.5,30.10,South,172,2.0,6.0,72,0.00,,,0.04,Wunderground v.1.15,2013-01-14 18:27:00,
2013-01-14 13:31:00,48.8,39.4,30.10,South,172,1.0,3.0,70,0.00,,,0.04,Wunderground v.1.15,2013-01-14 18:31:00,
2013-01-14 13:32:00,48.8,39.4,30.10,South,172,2.0,3.0,70,0.00,,,0.04,Wunderground v.1.15,2013-01-14 18:32:00,
2013-01-14 13:33:00,48.7,39.0,30.10,South,172,3.0,6.0,69,0.00,,,0.04,Wunderground v.1.15,2013-01-14 18:33:00,
2013-01-14 13:36:00,48.5,38.0,30.10,South,172,6.0,6.0,67,0.00,,,0.04,Wunderground v.1.15,2013-01-14 18:36:00,
2013-01-14 13:37:00,48.4,37.6,30.11,South,172,2.0,9.0,66,0.00,,,0.04,Wunderground v.1.15,2013-01-14 18:37:00,
2013-01-14 13:38:00,48.4,37.2,30.11,South,172,1.0,9.0,65,0.00,,,0.04,Wunderground v.1.15,2013-01-14 18:38:00,
2013-01-14 13:41:00,48.4,37.2,30.11,South,172,4.0,4.0,65,0.00,,,0.04,Wunderground v.1.15,2013-01-14 18:41:00,
2013-01-14 13:42:00,48.3,37.1,30.11,South,172,5.0,10.0,65,0.00,,,0.04,Wunderground v.1.15,2013-01-14 18:42:00,
2013-01-14 13:43:00,48.3,37.1,30.11,South,172,2.0,10.0,65,0.00,,,0.04,Wunderground v.1.15,2013-01-14 18:43:00,
2013-01-14 13:46:00,48.1,36.9,30.12,South,172,0.0,10.0,65,0.00,,,0.04,Wunderground v.1.15,2013-01-14 18:46:00,
2013-01-14 13:47:00,48.1,36.9,30.12,South,172,3.0,10.0,65,0.00,,,0.04,Wunderground v.1.15,2013-01-14 18:47:00,
2013-01-14 13:48:00,48.1,36.9,30.12,South,172,1.0,10.0,65,0.00,,,0.04,Wunderground v.1.15,2013-01-14 18:48:00,
2013-01-14 13:49:00,48.0,36.4,30.11,South,172,4.0,10.0,64,0.00,,,0.04,Wunderground v.1.15,2013-01-14 18:49:00,
2013-01-14 13:51:00,47.9,35.9,30.12,South,172,8.0,8.0,63,0.00,,,0.04,Wunderground v.1.15,2013-01-14 18:51:00,
2013-01-14 13:52:00,47.9,35.5,30.11,South,172,1.0,11.0,62,0.00,,,0.04,Wunderground v.1.15,2013-01-14 18:52:00,
2013-01-14 13:53:00,47.9,35.5,30.11,South,172,1.0,11.0,62,0.00,,,0.04,Wunderground v.1.15,2013-01-14 18:53:00,
2013-01-14 13:54:00,47.9,36.3,30.11,South,172,1.0,11.0,64,0.00,,,0.04,Wunderground v.1.15,2013-01-14 18:54:00,
2013-01-14 13:57:00,47.9,35.9,30.12,South,172,3.0,11.0,63,0.00,,,0.04,Wunderground v.1.15,2013-01-14 18:57:00,
2013-01-14 13:58:00,47.9,35.9,30.12,South,172,3.0,11.0,63,0.00,,,0.04,Wunderground v.1.15,2013-01-14 18:58:00,
2013-01-14 13:59:00,47.9,36.3,30.12,South,172,1.0,11.0,64,0.00,,,0.04,Wunderground v.1.15,2013-01-14 18:59:00,
2013-01-14 14:02:00,47.9,36.7,30.12,South,172,3.0,3.0,65,0.00,,,0.04,Wunderground v.1.15,2013-01-14 19:02:00,
2013-01-14 14:03:00,48.0,36.4,30.12,South,172,2.0,5.0,64,0.00,,,0.04,Wunderground v.1.15,2013-01-14 19:03:00,
2013-01-14 14:04:00,48.0,36.4,30.12,South,172,3.0,5.0,64,0.00,,,0.04,Wunderground v.1.15,2013-01-14 19:04:00,
2013-01-14 14:07:00,47.9,37.1,30.12,South,172,3.0,7.0,66,0.00,,,0.04,Wunderground v.1.15,2013-01-14 19:07:00,
2013-01-14 14:08:00,47.9,37.1,30.12,South,172,5.0,7.0,66,0.00,,,0.04,Wunderground v.1.15,2013-01-14 19:08:00,
2013-01-14 14:09:00,47.9,36.3,30.12,South,172,2.0,7.0,64,0.00,,,0.04,Wunderground v.1.15,2013-01-14 19:09:00,
2013-01-14 14:12:00,48.0,37.2,30.13,South,172,6.0,6.0,66,0.00,,,0.04,Wunderground v.1.15,2013-01-14 19:12:00,
2013-01-14 14:13:00,48.0,36.4,30.13,South,172,4.0,9.0,64,0.00,,,0.04,Wunderground v.1.15,2013-01-14 19:13:00,
2013-01-14 14:14:00,48.0,36.8,30.13,South,172,2.0,9.0,65,0.00,,,0.04,Wunderground v.1.15,2013-01-14 19:14:00,
2013-01-14 14:17:00,47.9,36.3,30.13,South,172,1.0,9.0,64,0.00,,,0.04,Wunderground v.1.15,2013-01-14 19:17:00,
2013-01-14 14:18:00,47.9,36.7,30.13,South,172,4.0,9.0,65,0.00,,,0.04,Wunderground v.1.15,2013-01-14 19:18:00,
2013-01-14 14:19:00,47.8,35.8,30.13,South,172,3.0,10.0,63,0.00,,,0.04,Wunderground v.1.15,2013-01-14 19:19:00,
2013-01-14 14:22:00,47.8,35.8,30.13,South,172,2.0,5.0,63,0.00,,,0.04,Wunderground v.1.15,2013-01-14 19:22:00,
2013-01-14 14:23:00,47.9,35.9,30.13,South,172,0.0,5.0,63,0.00,,,0.04,Wunderground v.1.15,2013-01-14 19:23:00,
2013-01-14 14:24:00,47.9,37.1,30.13,South,172,0.0,5.0,66,0.00,,,0.04,Wunderground v.1.15,2013-01-14 19:24:00,
2013-01-14 14:27:00,48.1,36.1,30.13,South,172,2.0,5.0,63,0.00,,,0.04,Wunderground v.1.15,2013-01-14 19:27:00,
2013-01-14 14:28:00,48.2,35.8,30.13,South,172,6.0,6.0,62,0.00,,,0.04,Wunderground v.1.15,2013-01-14 19:28:00,
2013-01-14 14:30:00,48.2,35.8,30.13,South,172,2.0,2.0,62,0.00,,,0.04,Wunderground v.1.15,2013-01-14 19:30:00,
2013-01-14 14:32:00,48.1,36.1,30.13,South,172,2.0,3.0,63,0.00,,,0.04,Wunderground v.1.15,2013-01-14 19:32:00,
2013-01-14 14:33:00,48.1,35.7,30.13,South,172,2.0,3.0,62,0.00,,,0.04,Wunderground v.1.15,2013-01-14 19:33:00,
2013-01-14 14:34:00,48.1,35.7,30.13,South,172,1.0,3.0,62,0.00,,,0.04,Wunderground v.1.15,2013-01-14 19:34:00,
2013-01-14 14:35:00,48.1,35.7,30.14,South,172,1.0,4.0,62,0.00,,,0.04,Wunderground v.1.15,2013-01-14 19:35:00,
2013-01-14 14:38:00,48.0,35.2,30.14,South,172,2.0,6.0,61,0.00,,,0.04,Wunderground v.1.15,2013-01-14 19:38:00,
2013-01-14 14:39:00,48.0,35.2,30.14,South,172,2.0,7.0,61,0.00,,,0.04,Wunderground v.1.15,2013-01-14 19:39:00,
2013-01-14 14:40:00,47.9,35.1,30.14,South,172,0.0,2.0,61,0.00,,,0.04,Wunderground v.1.15,2013-01-14 19:40:00,
2013-01-14 14:43:00,47.8,34.6,30.14,South,172,1.0,5.0,60,0.00,,,0.04,Wunderground v.1.15,2013-01-14 19:43:00,
2013-01-14 14:44:00,47.7,34.5,30.14,South,172,2.0,5.0,60,0.00,,,0.04,Wunderground v.1.15,2013-01-14 19:44:00,
2013-01-14 14:45:00,47.7,35.3,30.14,South,172,4.0,5.0,62,0.00,,,0.04,Wunderground v.1.15,2013-01-14 19:45:00,
2013-01-14 14:48:00,47.4,34.2,30.14,South,172,1.0,6.0,60,0.00,,,0.04,Wunderground v.1.15,2013-01-14 19:48:00,
2013-01-14 14:49:00,47.4,34.6,30.14,South,172,1.0,6.0,61,0.00,,,0.04,Wunderground v.1.15,2013-01-14 19:49:00,
2013-01-14 14:50:00,47.3,34.9,30.14,South,172,0.0,2.0,62,0.00,,,0.04,Wunderground v.1.15,2013-01-14 19:50:00,
2013-01-14 14:53:00,47.1,33.9,30.14,South,172,2.0,3.0,60,0.00,,,0.04,Wunderground v.1.15,2013-01-14 19:53:00,
2013-01-14 14:54:00,47.1,34.7,30.15,South,172,2.0,3.0,62,0.00,,,0.04,Wunderground v.1.15,2013-01-14 19:54:00,
2013-01-14 14:55:00,46.9,34.1,30.14,South,172,2.0,3.0,61,0.00,,,0.04,Wunderground v.1.15,2013-01-14 19:55:00,
2013-01-14 14:59:00,46.7,33.1,30.15,South,172,4.0,7.0,59,0.00,,,0.04,Wunderground v.1.15,2013-01-14 19:59:00,
2013-01-14 15:02:00,46.3,33.2,30.15,South,172,0.0,2.0,60,0.00,,,0.04,Wunderground v.1.15,2013-01-14 20:02:00,
2013-01-14 15:04:00,46.2,33.1,30.15,South,172,1.0,3.0,60,0.00,,,0.04,Wunderground v.1.15,2013-01-14 20:04:00,
2013-01-14 15:07:00,46.0,33.3,30.16,South,172,2.0,3.0,61,0.00,,,0.04,Wunderground v.1.15,2013-01-14 20:07:00,
2013-01-14 15:09:00,45.9,32.8,30.16,South,172,1.0,3.0,60,0.00,,,0.04,Wunderground v.1.15,2013-01-14 20:09:00,
2013-01-14 15:12:00,45.5,33.6,30.16,South,172,4.0,5.0,63,0.00,,,0.04,Wunderground v.1.15,2013-01-14 20:12:00,
2013-01-14 15:14:00,45.3,33.0,30.16,South,172,1.0,5.0,62,0.00,,,0.04,Wunderground v.1.15,2013-01-14 20:14:00,
2013-01-14 15:15:00,45.2,33.7,30.17,South,172,2.0,5.0,64,0.00,,,0.04,Wunderground v.1.15,2013-01-14 20:15:00,
2013-01-14 15:17:00,44.8,33.4,30.17,South,172,1.0,5.0,64,0.00,,,0.04,Wunderground v.1.15,2013-01-14 20:17:00,
2013-01-14 15:19:00,44.5,33.1,30.17,South,172,1.0,5.0,64,0.00,,,0.04,Wunderground v.1.15,2013-01-14 20:19:00,
2013-01-14 15:20:00,44.5,33.1,30.17,South,172,0.0,1.0,64,0.00,,,0.04,Wunderground v.1.15,2013-01-14 20:20:00,
2013-01-14 15:22:00,44.5,33.5,30.17,South,172,2.0,3.0,65,0.00,,,0.04,Wunderground v.1.15,2013-01-14 20:22:00,
2013-01-14 15:24:00,44.5,33.5,30.17,South,172,1.0,3.0,65,0.00,,,0.04,Wunderground v.1.15,2013-01-14 20:24:00,
2013-01-14 15:25:00,44.4,33.7,30.17,South,172,1.0,3.0,66,0.00,,,0.04,Wunderground v.1.15,2013-01-14 20:25:00,
2013-01-14 15:27:00,44.2,33.2,30.17,South,172,3.0,3.0,65,0.00,,,0.04,Wunderground v.1.15,2013-01-14 20:27:00,
2013-01-14 15:29:00,44.0,33.0,30.17,South,172,1.0,3.0,65,0.00,,,0.04,Wunderground v.1.15,2013-01-14 20:29:00,
2013-01-14 15:30:00,44.1,31.9,30.17,South,172,0.0,1.0,62,0.00,,,0.04,Wunderground v.1.15,2013-01-14 20:30:00,
2013-01-14 15:32:00,44.1,32.3,30.17,South,172,2.0,3.0,63,0.00,,,0.04,Wunderground v.1.15,2013-01-14 20:32:00,
2013-01-14 15:34:00,44.1,32.3,30.17,South,172,2.0,3.0,63,0.00,,,0.04,Wunderground v.1.15,2013-01-14 20:34:00,
2013-01-14 15:35:00,44.0,33.0,30.17,South,172,2.0,3.0,65,0.00,,,0.04,Wunderground v.1.15,2013-01-14 20:35:00,
2013-01-14 15:38:00,43.7,32.7,30.18,South,172,0.0,3.0,65,0.00,,,0.04,Wunderground v.1.15,2013-01-14 20:38:00,
2013-01-14 15:40:00,43.4,33.2,30.18,South,172,0.0,3.0,67,0.00,,,0.04,Wunderground v.1.15,2013-01-14 20:40:00,
2013-01-14 15:43:00,43.0,32.4,30.18,South,172,2.0,5.0,66,0.00,,,0.04,Wunderground v.1.15,2013-01-14 20:43:00,
2013-01-14 15:45:00,42.9,32.7,30.18,South,172,0.0,5.0,67,0.00,,,0.04,Wunderground v.1.15,2013-01-14 20:45:00,
2013-01-14 15:48:00,42.8,32.6,30.18,South,172,0.0,5.0,67,0.00,,,0.04,Wunderground v.1.15,2013-01-14 20:48:00,
2013-01-14 15:50:00,42.7,32.9,30.18,South,172,0.0,1.0,68,0.00,,,0.04,Wunderground v.1.15,2013-01-14 20:50:00,
2013-01-14 15:54:00,42.4,33.3,30.18,South,172,2.0,3.0,70,0.00,,,0.04,Wunderground v.1.15,2013-01-14 20:54:00,
2013-01-14 15:55:00,42.2,33.5,30.18,South,172,0.0,3.0,71,0.00,,,0.04,Wunderground v.1.15,2013-01-14 20:55:00,
2013-01-14 15:56:00,42.2,33.5,30.18,South,172,1.0,3.0,71,0.00,,,0.04,Wunderground v.1.15,2013-01-14 20:56:00,
2013-01-14 15:59:00,42.0,33.3,30.18,South,172,0.0,3.0,71,0.00,,,0.04,Wunderground v.1.15,2013-01-14 20:59:00,
2013-01-14 16:02:00,42.0,33.3,30.18,South,172,0.0,0.0,71,0.00,,,0.04,Wunderground v.1.15,2013-01-14 21:02:00,
2013-01-14 16:04:00,41.6,33.6,30.18,South,172,0.0,1.0,73,0.00,,,0.04,Wunderground v.1.15,2013-01-14 21:04:00,
2013-01-14 16:07:00,41.4,32.7,30.18,South,172,1.0,3.0,71,0.00,,,0.04,Wunderground v.1.15,2013-01-14 21:07:00,
2013-01-14 16:09:00,41.5,31.7,30.18,South,172,0.0,6.0,68,0.00,,,0.04,Wunderground v.1.15,2013-01-14 21:09:00,
2013-01-14 16:12:00,41.5,33.1,30.18,South,172,1.0,2.0,72,0.00,,,0.04,Wunderground v.1.15,2013-01-14 21:12:00,
2013-01-14 16:15:00,41.3,33.3,30.18,South,172,0.0,2.0,73,0.00,,,0.04,Wunderground v.1.15,2013-01-14 21:15:00,
2013-01-14 16:17:00,41.1,33.1,30.18,South,172,2.0,2.0,73,0.00,,,0.04,Wunderground v.1.15,2013-01-14 21:17:00,
2013-01-14 16:20:00,40.7,32.4,30.19,South,172,0.0,3.0,72,0.00,,,0.04,Wunderground v.1.15,2013-01-14 21:20:00,
2013-01-14 16:22:00,40.5,32.5,30.19,South,172,0.0,1.0,73,0.00,,,0.04,Wunderground v.1.15,2013-01-14 21:22:00,
2013-01-14 16:23:00,40.5,32.2,30.19,South,172,1.0,1.0,72,0.00,,,0.04,Wunderground v.1.15,2013-01-14 21:23:00,
2013-01-14 16:25:00,40.3,32.0,30.19,South,172,0.0,3.0,72,0.00,,,0.04,Wunderground v.1.15,2013-01-14 21:25:00,
2013-01-14 16:27:00,40.2,32.2,30.19,South,172,0.0,3.0,73,0.00,,,0.04,Wunderground v.1.15,2013-01-14 21:27:00,
2013-01-14 16:28:00,40.1,31.8,30.19,South,172,0.0,3.0,72,0.00,,,0.04,Wunderground v.1.15,2013-01-14 21:28:00,
2013-01-14 16:30:00,40.0,31.7,30.19,South,172,0.0,0.0,72,0.00,,,0.04,Wunderground v.1.15,2013-01-14 21:30:00,
2013-01-14 16:32:00,39.8,31.8,30.19,South,172,0.0,0.0,73,0.00,,,0.04,Wunderground v.1.15,2013-01-14 21:32:00,
2013-01-14 16:33:00,39.8,31.5,30.19,South,172,0.0,0.0,72,0.00,,,0.04,Wunderground v.1.15,2013-01-14 21:33:00,
2013-01-14 16:35:00,39.6,31.0,30.19,South,172,0.0,1.0,71,0.00,,,0.04,Wunderground v.1.15,2013-01-14 21:35:00,
2013-01-14 16:37:00,39.5,31.2,30.19,South,172,1.0,1.0,72,0.00,,,0.04,Wunderground v.1.15,2013-01-14 21:37:00,
2013-01-14 16:38:00,39.5,31.2,30.19,South,172,2.0,2.0,72,0.00,,,0.04,Wunderground v.1.15,2013-01-14 21:38:00,
2013-01-14 16:40:00,39.3,30.7,30.19,South,172,0.0,2.0,71,0.00,,,0.04,Wunderground v.1.15,2013-01-14 21:40:00,
2013-01-14 16:42:00,39.3,31.0,30.20,South,172,0.0,2.0,72,0.00,,,0.04,Wunderground v.1.15,2013-01-14 21:42:00,
2013-01-14 16:43:00,39.3,31.0,30.20,South,172,1.0,2.0,72,0.00,,,0.04,Wunderground v.1.15,2013-01-14 21:43:00,
2013-01-14 16:46:00,39.2,30.2,30.20,South,172,0.0,3.0,70,0.00,,,0.04,Wunderground v.1.15,2013-01-14 21:46:00,
2013-01-14 16:47:00,39.2,30.9,30.20,South,172,1.0,3.0,72,0.00,,,0.04,Wunderground v.1.15,2013-01-14 21:47:00,
2013-01-14 16:48:00,39.1,30.8,30.20,South,172,2.0,3.0,72,0.00,,,0.04,Wunderground v.1.15,2013-01-14 21:48:00,
2013-01-14 16:51:00,38.8,30.9,30.20,South,172,0.0,1.0,73,0.00,,,0.04,Wunderground v.1.15,2013-01-14 21:51:00,
2013-01-14 16:53:00,38.7,30.8,30.20,South,172,0.0,2.0,73,0.00,,,0.04,Wunderground v.1.15,2013-01-14 21:53:00,
2013-01-14 16:56:00,38.4,30.8,30.20,South,172,0.0,2.0,74,0.00,,,0.04,Wunderground v.1.15,2013-01-14 21:56:00,
2013-01-14 16:58:00,38.3,30.7,30.20,South,172,1.0,2.0,74,0.00,,,0.04,Wunderground v.1.15,2013-01-14 21:58:00,
2013-01-14 17:02:00,38.2,30.6,30.20,South,172,0.0,0.0,74,0.00,,,0.04,Wunderground v.1.15,2013-01-14 22:02:00,
2013-01-14 17:03:00,38.1,30.5,30.20,South,172,0.0,0.0,74,0.00,,,0.04,Wunderground v.1.15,2013-01-14 22:03:00,
2013-01-14 17:07:00,37.9,30.4,30.20,South,172,0.0,0.0,74,0.00,,,0.04,Wunderground v.1.15,2013-01-14 22:07:00,
2013-01-14 17:08:00,37.9,30.4,30.20,South,172,0.0,0.0,74,0.00,,,0.04,Wunderground v.1.15,2013-01-14 22:08:00,
2013-01-14 17:12:00,37.7,30.5,30.20,South,172,0.0,0.0,75,0.00,,,0.04,Wunderground v.1.15,2013-01-14 22:12:00,
2013-01-14 17:13:00,37.7,30.2,30.20,South,172,0.0,3.0,74,0.00,,,0.04,Wunderground v.1.15,2013-01-14 22:13:00,
2013-01-14 17:14:00,37.7,30.2,30.20,South,172,0.0,3.0,74,0.00,,,0.04,Wunderground v.1.15,2013-01-14 22:14:00,
2013-01-14 17:17:00,37.6,30.1,30.20,South,172,0.0,3.0,74,0.00,,,0.04,Wunderground v.1.15,2013-01-14 22:17:00,
2013-01-14 17:18:00,37.6,29.7,30.20,South,172,0.0,3.0,73,0.00,,,0.04,Wunderground v.1.15,2013-01-14 22:18:00,
2013-01-14 17:19:00,37.6,29.7,30.20,South,172,0.0,3.0,73,0.00,,,0.04,Wunderground v.1.15,2013-01-14 22:19:00,
2013-01-14 17:22:00,37.5,30.0,30.20,South,172,0.0,0.0,74,0.00,,,0.04,Wunderground v.1.15,2013-01-14 22:22:00,
2013-01-14 17:24:00,37.5,30.0,30.20,South,172,0.0,0.0,74,0.00,,,0.04,Wunderground v.1.15,2013-01-14 22:24:00,
2013-01-14 17:27:00,37.3,29.8,30.20,South,172,0.0,0.0,74,0.00,,,0.04,Wunderground v.1.15,2013-01-14 22:27:00,
2013-01-14 17:29:00,37.2,29.7,30.20,South,172,0.0,0.0,74,0.00,,,0.04,Wunderground v.1.15,2013-01-14 22:29:00,
2013-01-14 17:32:00,37.0,29.5,30.20,South,172,1.0,1.0,74,0.00,,,0.04,Wunderground v.1.15,2013-01-14 22:32:00,
2013-01-14 17:34:00,36.9,29.4,30.20,South,172,0.0,1.0,74,0.00,,,0.04,Wunderground v.1.15,2013-01-14 22:34:00,
2013-01-14 17:38:00,36.8,29.0,30.20,South,172,0.0,1.0,73,0.00,,,0.04,Wunderground v.1.15,2013-01-14 22:38:00,
2013-01-14 17:39:00,36.7,28.9,30.20,South,172,0.0,1.0,73,0.00,,,0.04,Wunderground v.1.15,2013-01-14 22:39:00,
2013-01-14 17:43:00,36.7,29.2,30.19,South,172,0.0,1.0,74,0.00,,,0.04,Wunderground v.1.15,2013-01-14 22:43:00,
2013-01-14 17:44:00,36.6,29.1,30.19,South,172,0.0,1.0,74,0.00,,,0.04,Wunderground v.1.15,2013-01-14 22:44:00,
2013-01-14 17:45:00,36.6,28.8,30.19,South,172,0.0,1.0,73,0.00,,,0.04,Wunderground v.1.15,2013-01-14 22:45:00,
2013-01-14 17:48:00,36.4,29.2,30.19,South,172,0.0,1.0,75,0.00,,,0.04,Wunderground v.1.15,2013-01-14 22:48:00,
2013-01-14 17:49:00,36.3,29.5,30.19,South,172,0.0,1.0,76,0.00,,,0.04,Wunderground v.1.15,2013-01-14 22:49:00,
2013-01-14 17:50:00,36.3,29.5,30.19,South,172,0.0,0.0,76,0.00,,,0.04,Wunderground v.1.15,2013-01-14 22:50:00,
2013-01-14 17:53:00,36.0,29.2,30.19,South,172,0.0,0.0,76,0.00,,,0.04,Wunderground v.1.15,2013-01-14 22:53:00,
2013-01-14 17:54:00,35.9,28.7,30.19,South,172,0.0,0.0,75,0.00,,,0.04,Wunderground v.1.15,2013-01-14 22:54:00,
2013-01-14 17:55:00,35.8,28.6,30.19,South,172,0.0,0.0,75,0.00,,,0.04,Wunderground v.1.15,2013-01-14 22:55:00,
2013-01-14 17:58:00,35.7,28.9,30.19,South,172,0.0,0.0,76,0.00,,,0.04,Wunderground v.1.15,2013-01-14 22:58:00,
2013-01-14 17:59:00,35.7,28.9,30.20,South,172,0.0,0.0,76,0.00,,,0.04,Wunderground v.1.15,2013-01-14 22:59:00,
2013-01-14 18:00:00,35.7,28.9,30.20,South,172,0.0,0.0,76,0.00,,,0.04,Wunderground v.1.15,2013-01-14 23:00:00,
2013-01-14 18:03:00,35.5,28.7,30.21,South,172,0.0,0.0,76,0.00,,,0.04,Wunderground v.1.15,2013-01-14 23:03:00,
2013-01-14 18:04:00,35.5,28.4,30.21,South,172,0.0,0.0,75,0.00,,,0.04,Wunderground v.1.15,2013-01-14 23:04:00,
2013-01-14 18:05:00,35.5,28.4,30.21,South,172,0.0,0.0,75,0.00,,,0.04,Wunderground v.1.15,2013-01-14 23:05:00,
2013-01-14 18:08:00,35.5,28.7,30.21,South,172,0.0,0.0,76,0.00,,,0.04,Wunderground v.1.15,2013-01-14 23:08:00,
2013-01-14 18:09:00,35.5,28.7,30.21,South,172,0.0,0.0,76,0.00,,,0.04,Wunderground v.1.15,2013-01-14 23:09:00,
2013-01-14 18:10:00,35.5,28.7,30.21,South,172,1.0,1.0,76,0.00,,,0.04,Wunderground v.1.15,2013-01-14 23:10:00,
2013-01-14 18:13:00,35.3,28.8,30.20,South,172,1.0,2.0,77,0.00,,,0.04,Wunderground v.1.15,2013-01-14 23:13:00,
2013-01-14 18:15:00,35.1,29.2,30.20,South,172,0.0,2.0,79,0.00,,,0.04,Wunderground v.1.15,2013-01-14 23:15:00,
2013-01-14 18:18:00,34.8,29.3,30.21,South,172,1.0,2.0,80,0.00,,,0.04,Wunderground v.1.15,2013-01-14 23:18:00,
2013-01-14 18:20:00,34.7,29.5,30.21,South,172,0.0,1.0,81,0.00,,,0.04,Wunderground v.1.15,2013-01-14 23:20:00,
2013-01-14 18:24:00,34.5,29.0,30.21,South,172,0.0,2.0,80,0.00,,,0.04,Wunderground v.1.15,2013-01-14 23:24:00,
2013-01-14 18:25:00,34.6,29.1,30.21,South,172,0.0,2.0,80,0.00,,,0.04,Wunderground v.1.15,2013-01-14 23:25:00,
2013-01-14 18:26:00,34.6,29.1,30.21,South,172,0.0,2.0,80,0.00,,,0.04,Wunderground v.1.15,2013-01-14 23:26:00,
2013-01-14 18:29:00,34.5,29.0,30.21,South,172,1.0,2.0,80,0.00,,,0.04,Wunderground v.1.15,2013-01-14 23:29:00,
2013-01-14 18:30:00,34.5,29.0,30.22,South,172,0.0,0.0,80,0.00,,,0.04,Wunderground v.1.15,2013-01-14 23:30:00,
2013-01-14 18:31:00,34.5,29.3,30.22,South,172,0.0,0.0,81,0.00,,,0.04,Wunderground v.1.15,2013-01-14 23:31:00,
2013-01-14 18:34:00,34.3,29.1,30.22,South,172,0.0,0.0,81,0.00,,,0.04,Wunderground v.1.15,2013-01-14 23:34:00,
2013-01-14 18:35:00,34.2,29.0,30.22,South,172,0.0,0.0,81,0.00,,,0.04,Wunderground v.1.15,2013-01-14 23:35:00,
2013-01-14 18:36:00,34.1,28.9,30.21,South,172,0.0,0.0,81,0.00,,,0.04,Wunderground v.1.15,2013-01-14 23:36:00,
2013-01-14 18:39:00,34.0,28.2,30.22,South,172,0.0,1.0,79,0.00,,,0.04,Wunderground v.1.15,2013-01-14 23:39:00,
2013-01-14 18:40:00,34.1,28.0,30.21,South,172,0.0,0.0,78,0.00,,,0.04,Wunderground v.1.15,2013-01-14 23:40:00,
2013-01-14 18:41:00,34.1,28.0,30.22,South,172,0.0,0.0,78,0.00,,,0.04,Wunderground v.1.15,2013-01-14 23:41:00,
2013-01-14 18:44:00,34.1,28.6,30.22,South,172,0.0,1.0,80,0.00,,,0.04,Wunderground v.1.15,2013-01-14 23:44:00,
2013-01-14 18:45:00,34.1,28.3,30.22,South,172,0.0,1.0,79,0.00,,,0.04,Wunderground v.1.15,2013-01-14 23:45:00,
2013-01-14 18:46:00,34.1,28.3,30.22,South,172,0.0,1.0,79,0.00,,,0.04,Wunderground v.1.15,2013-01-14 23:46:00,
2013-01-14 18:49:00,34.2,28.7,30.22,South,172,0.0,1.0,80,0.00,,,0.04,Wunderground v.1.15,2013-01-14 23:49:00,
2013-01-14 18:50:00,34.1,28.9,30.23,South,172,0.0,0.0,81,0.00,,,0.04,Wunderground v.1.15,2013-01-14 23:50:00,
2013-01-14 18:51:00,34.1,28.9,30.23,South,172,0.0,0.0,81,0.00,,,0.04,Wunderground v.1.15,2013-01-14 23:51:00,
2013-01-14 18:54:00,34.0,28.8,30.23,South,172,0.0,0.0,81,0.00,,,0.04,Wunderground v.1.15,2013-01-14 23:54:00,
2013-01-14 18:56:00,34.0,29.1,30.23,South,172,0.0,0.0,82,0.00,,,0.04,Wunderground v.1.15,2013-01-14 23:56:00,
2013-01-14 18:57:00,34.0,28.8,30.24,South,172,0.0,0.0,81,0.00,,,0.04,Wunderground v.1.15,2013-01-14 23:57:00,
2013-01-14 19:00:00,33.9,28.1,30.24,South,172,1.0,1.0,79,0.00,,,0.04,Wunderground v.1.15,2013-01-15 00:00:00,
2013-01-14 19:01:00,34.0,28.2,30.24,South,172,0.0,1.0,79,0.00,,,0.04,Wunderground v.1.15,2013-01-15 00:01:00,
2013-01-14 19:02:00,34.0,28.2,30.24,South,172,0.0,1.0,79,0.00,,,0.04,Wunderground v.1.15,2013-01-15 00:02:00,
2013-01-14 19:03:00,34.1,28.0,30.24,South,172,0.0,1.0,78,0.00,,,0.04,Wunderground v.1.15,2013-01-15 00:03:00,
2013-01-14 19:05:00,34.3,28.2,30.24,South,172,0.0,1.0,78,0.00,,,0.04,Wunderground v.1.15,2013-01-15 00:05:00,
2013-01-14 19:06:00,34.4,28.6,30.25,South,172,0.0,2.0,79,0.00,,,0.04,Wunderground v.1.15,2013-01-15 00:06:00,
2013-01-14 19:07:00,34.4,28.6,30.25,South,172,0.0,2.0,79,0.00,,,0.04,Wunderground v.1.15,2013-01-15 00:07:00,
2013-01-14 19:08:00,34.4,28.6,30.25,South,172,0.0,2.0,79,0.00,,,0.04,Wunderground v.1.15,2013-01-15 00:08:00,
2013-01-14 19:10:00,34.5,28.0,30.25,South,172,0.0,0.0,77,0.00,,,0.04,Wunderground v.1.15,2013-01-15 00:10:00,
2013-01-14 19:11:00,34.5,28.0,30.25,South,172,0.0,0.0,77,0.00,,,0.04,Wunderground v.1.15,2013-01-15 00:11:00,
2013-01-14 19:12:00,34.5,28.0,30.25,South,172,2.0,2.0,77,0.00,,,0.04,Wunderground v.1.15,2013-01-15 00:12:00,
2013-01-14 19:13:00,34.6,27.8,30.25,South,172,0.0,2.0,76,0.00,,,0.04,Wunderground v.1.15,2013-01-15 00:13:00,
2013-01-14 19:15:00,34.7,28.2,30.25,South,172,0.0,2.0,77,0.00,,,0.04,Wunderground v.1.15,2013-01-15 00:15:00,
2013-01-14 19:17:00,34.7,28.5,30.25,South,172,0.0,2.0,78,0.00,,,0.04,Wunderground v.1.15,2013-01-15 00:17:00,
2013-01-14 19:18:00,34.7,28.9,30.25,South,172,0.0,2.0,79,0.00,,,0.04,Wunderground v.1.15,2013-01-15 00:18:00,
2013-01-14 19:20:00,34.7,28.9,30.26,South,172,0.0,0.0,79,0.00,,,0.04,Wunderground v.1.15,2013-01-15 00:20:00,
2013-01-14 19:22:00,34.7,28.2,30.26,South,172,0.0,0.0,77,0.00,,,0.04,Wunderground v.1.15,2013-01-15 00:22:00,
2013-01-14 19:23:00,34.7,28.2,30.26,South,172,0.0,0.0,77,0.00,,,0.04,Wunderground v.1.15,2013-01-15 00:23:00,
2013-01-14 19:25:00,34.7,28.2,30.26,South,172,0.0,0.0,77,0.00,,,0.04,Wunderground v.1.15,2013-01-15 00:25:00,
2013-01-14 19:27:00,34.7,28.5,30.26,South,172,0.0,0.0,78,0.00,,,0.04,Wunderground v.1.15,2013-01-15 00:27:00,
2013-01-14 19:28:00,34.7,29.2,30.26,South,172,0.0,0.0,80,0.00,,,0.04,Wunderground v.1.15,2013-01-15 00:28:00,
2013-01-14 19:30:00,34.7,28.9,30.25,South,172,0.0,0.0,79,0.00,,,0.04,Wunderground v.1.15,2013-01-15 00:30:00,
2013-01-14 19:32:00,34.7,28.5,30.25,South,172,0.0,1.0,78,0.00,,,0.04,Wunderground v.1.15,2013-01-15 00:32:00,
2013-01-14 19:33:00,34.7,28.9,30.25,South,172,0.0,1.0,79,0.00,,,0.04,Wunderground v.1.15,2013-01-15 00:33:00,
2013-01-14 19:35:00,34.7,28.9,30.25,South,172,3.0,4.0,79,0.00,,,0.04,Wunderground v.1.15,2013-01-15 00:35:00,
2013-01-14 19:37:00,34.8,29.0,30.26,South,172,0.0,4.0,79,0.00,,,0.04,Wunderground v.1.15,2013-01-15 00:37:00,
2013-01-14 19:38:00,34.7,28.9,30.26,South,172,1.0,4.0,79,0.00,,,0.04,Wunderground v.1.15,2013-01-15 00:38:00,
2013-01-14 19:39:00,34.8,28.6,30.26,South,172,1.0,4.0,78,0.00,,,0.04,Wunderground v.1.15,2013-01-15 00:39:00,
2013-01-14 19:41:00,34.8,28.6,30.26,South,172,0.0,1.0,78,0.00,,,0.04,Wunderground v.1.15,2013-01-15 00:41:00,
2013-01-14 19:42:00,34.9,28.4,30.26,South,172,2.0,4.0,77,0.00,,,0.04,Wunderground v.1.15,2013-01-15 00:42:00,
2013-01-14 19:43:00,34.9,28.4,30.26,South,172,2.0,4.0,77,0.00,,,0.04,Wunderground v.1.15,2013-01-15 00:43:00,
2013-01-14 19:44:00,34.9,28.4,30.26,South,172,0.0,4.0,77,0.00,,,0.04,Wunderground v.1.15,2013-01-15 00:44:00,
2013-01-14 19:46:00,34.9,28.7,30.25,South,172,0.0,4.0,78,0.00,,,0.04,Wunderground v.1.15,2013-01-15 00:46:00,
2013-01-14 19:48:00,34.9,28.4,30.25,South,172,0.0,4.0,77,0.00,,,0.04,Wunderground v.1.15,2013-01-15 00:48:00,
2013-01-14 19:49:00,34.9,28.4,30.26,South,172,0.0,4.0,77,0.00,,,0.04,Wunderground v.1.15,2013-01-15 00:49:00,
2013-01-14 19:51:00,34.8,28.6,30.26,South,172,2.0,2.0,78,0.00,,,0.04,Wunderground v.1.15,2013-01-15 00:51:00,
2013-01-14 19:53:00,34.8,28.6,30.27,South,172,0.0,2.0,78,0.00,,,0.04,Wunderground v.1.15,2013-01-15 00:53:00,
2013-01-14 19:54:00,34.8,28.3,30.27,South,172,0.0,2.0,77,0.00,,,0.04,Wunderground v.1.15,2013-01-15 00:54:00,
2013-01-14 19:56:00,34.7,28.5,30.27,South,172,0.0,2.0,78,0.00,,,0.04,Wunderground v.1.15,2013-01-15 00:56:00,
2013-01-14 19:58:00,34.7,28.2,30.27,South,172,0.0,2.0,77,0.00,,,0.04,Wunderground v.1.15,2013-01-15 00:58:00,
2013-01-14 19:59:00,34.7,28.5,30.27,South,172,0.0,2.0,78,0.00,,,0.04,Wunderground v.1.15,2013-01-15 00:59:00,
2013-01-14 20:01:00,34.7,28.5,30.28,South,172,0.0,1.0,78,0.00,,,0.04,Wunderground v.1.15,2013-01-15 01:01:00,
2013-01-14 20:03:00,34.7,28.9,30.27,South,172,0.0,1.0,79,0.00,,,0.04,Wunderground v.1.15,2013-01-15 01:03:00,
2013-01-14 20:04:00,34.6,28.8,30.27,South,172,0.0,1.0,79,0.00,,,0.04,Wunderground v.1.15,2013-01-15 01:04:00,
2013-01-14 20:06:00,34.5,28.7,30.27,South,172,0.0,1.0,79,0.00,,,0.04,Wunderground v.1.15,2013-01-15 01:06:00,
2013-01-14 20:08:00,34.4,28.6,30.27,South,172,0.0,1.0,79,0.00,,,0.04,Wunderground v.1.15,2013-01-15 01:08:00,
2013-01-14 20:09:00,34.4,28.6,30.27,South,172,0.0,1.0,79,0.00,,,0.04,Wunderground v.1.15,2013-01-15 01:09:00,
2013-01-14 20:11:00,34.3,28.8,30.27,South,172,0.0,0.0,80,0.00,,,0.04,Wunderground v.1.15,2013-01-15 01:11:00,
2013-01-14 20:14:00,34.2,28.1,30.27,South,172,0.0,1.0,78,0.00,,,0.04,Wunderground v.1.15,2013-01-15 01:14:00,
2013-01-14 20:16:00,34.2,28.1,30.27,South,172,0.0,1.0,78,0.00,,,0.04,Wunderground v.1.15,2013-01-15 01:16:00,
2013-01-14 20:19:00,34.1,28.6,30.27,South,172,0.0,1.0,80,0.00,,,0.04,Wunderground v.1.15,2013-01-15 01:19:00,
2013-01-14 20:22:00,34.1,28.3,30.28,South,172,0.0,0.0,79,0.00,,,0.04,Wunderground v.1.15,2013-01-15 01:22:00,
2013-01-14 20:24:00,34.0,28.2,30.28,South,172,0.0,1.0,79,0.00,,,0.04,Wunderground v.1.15,2013-01-15 01:24:00,
2013-01-14 20:25:00,34.0,28.2,30.27,South,172,0.0,1.0,79,0.00,,,0.04,Wunderground v.1.15,2013-01-15 01:25:00,
2013-01-14 20:27:00,34.0,27.9,30.28,South,172,0.0,1.0,78,0.00,,,0.04,Wunderground v.1.15,2013-01-15 01:27:00,
2013-01-14 20:29:00,34.0,27.9,30.27,South,172,0.0,2.0,78,0.00,,,0.04,Wunderground v.1.15,2013-01-15 01:29:00,
2013-01-14 20:30:00,34.0,27.9,30.28,South,172,0.0,1.0,78,0.00,,,0.04,Wunderground v.1.15,2013-01-15 01:30:00,
2013-01-14 20:32:00,34.1,28.0,30.27,South,172,0.0,1.0,78,0.00,,,0.04,Wunderground v.1.15,2013-01-15 01:32:00,
2013-01-14 20:34:00,34.0,28.5,30.27,South,172,1.0,1.0,80,0.00,,,0.04,Wunderground v.1.15,2013-01-15 01:34:00,
2013-01-14 20:35:00,33.9,28.1,30.27,South,172,0.0,1.0,79,0.00,,,0.04,Wunderground v.1.15,2013-01-15 01:35:00,
2013-01-14 20:37:00,33.8,28.3,30.27,South,172,0.0,1.0,80,0.00,,,0.04,Wunderground v.1.15,2013-01-15 01:37:00,
2013-01-14 20:39:00,33.6,27.8,30.27,South,172,0.0,1.0,79,0.00,,,0.04,Wunderground v.1.15,2013-01-15 01:39:00,
2013-01-14 20:40:00,33.6,28.1,30.27,South,172,2.0,2.0,80,0.00,,,0.04,Wunderground v.1.15,2013-01-15 01:40:00,
2013-01-14 20:42:00,33.5,27.4,30.27,South,172,0.0,2.0,78,0.00,,,0.04,Wunderground v.1.15,2013-01-15 01:42:00,
2013-01-14 20:44:00,33.4,27.9,30.27,South,172,1.0,2.0,80,0.00,,,0.04,Wunderground v.1.15,2013-01-15 01:44:00,
2013-01-14 20:45:00,33.4,27.6,30.26,South,172,0.0,2.0,79,0.00,,,0.04,Wunderground v.1.15,2013-01-15 01:45:00,
2013-01-14 20:46:00,33.3,27.8,30.27,South,172,0.0,2.0,80,0.00,,,0.04,Wunderground v.1.15,2013-01-15 01:46:00,
2013-01-14 20:47:00,33.3,27.8,30.27,South,172,0.0,2.0,80,0.00,,,0.04,Wunderground v.1.15,2013-01-15 01:47:00,
2013-01-14 20:49:00,33.2,28.0,30.27,South,172,0.0,2.0,81,0.00,,,0.04,Wunderground v.1.15,2013-01-15 01:49:00,
2013-01-14 20:51:00,33.1,28.2,30.27,South,172,0.0,0.0,82,0.00,,,0.04,Wunderground v.1.15,2013-01-15 01:51:00,
2013-01-14 20:52:00,32.9,27.7,30.27,South,172,0.0,1.0,81,0.00,,,0.04,Wunderground v.1.15,2013-01-15 01:52:00,
2013-01-14 20:54:00,32.8,27.6,30.27,South,172,0.0,1.0,81,0.00,,,0.04,Wunderground v.1.15,2013-01-15 01:54:00,
2013-01-14 20:56:00,32.8,27.6,30.27,South,172,1.0,1.0,81,0.00,,,0.04,Wunderground v.1.15,2013-01-15 01:56:00,
2013-01-14 20:57:00,32.7,27.5,30.27,South,172,0.0,1.0,81,0.00,,,0.04,Wunderground v.1.15,2013-01-15 01:57:00,
2013-01-14 20:59:00,32.7,27.8,30.27,South,172,0.0,1.0,82,0.00,,,0.04,Wunderground v.1.15,2013-01-15 01:59:00,
2013-01-14 21:02:00,32.5,27.6,30.28,South,172,0.0,0.0,82,0.00,,,0.04,Wunderground v.1.15,2013-01-15 02:02:00,
2013-01-14 21:04:00,32.4,27.2,30.28,South,172,0.0,1.0,81,0.00,,,0.04,Wunderground v.1.15,2013-01-15 02:04:00,
2013-01-14 21:07:00,32.3,27.1,30.28,South,172,0.0,1.0,81,0.00,,,0.04,Wunderground v.1.15,2013-01-15 02:07:00,
2013-01-14 21:10:00,32.3,26.8,30.27,South,172,0.0,0.0,80,0.00,,,0.04,Wunderground v.1.15,2013-01-15 02:10:00,
2013-01-14 21:12:00,32.2,26.7,30.28,South,172,0.0,0.0,80,0.00,,,0.04,Wunderground v.1.15,2013-01-15 02:12:00,
2013-01-14 21:15:00,32.2,27.0,30.28,South,172,0.0,0.0,81,0.00,,,0.04,Wunderground v.1.15,2013-01-15 02:15:00,
2013-01-14 21:17:00,32.1,27.2,30.28,South,172,0.0,0.0,82,0.00,,,0.04,Wunderground v.1.15,2013-01-15 02:17:00,
2013-01-14 21:18:00,32.2,27.3,30.28,South,172,0.0,0.0,82,0.00,,,0.04,Wunderground v.1.15,2013-01-15 02:18:00,
2013-01-14 21:20:00,32.1,27.5,30.28,South,172,0.0,0.0,83,0.00,,,0.04,Wunderground v.1.15,2013-01-15 02:20:00,
2013-01-14 21:22:00,32.0,27.4,30.28,South,172,0.0,0.0,83,0.00,,,0.04,Wunderground v.1.15,2013-01-15 02:22:00,
2013-01-14 21:23:00,32.0,27.4,30.28,South,172,0.0,0.0,83,0.00,,,0.04,Wunderground v.1.15,2013-01-15 02:23:00,
2013-01-14 21:25:00,32.0,27.4,30.28,South,172,0.0,0.0,83,0.00,,,0.04,Wunderground v.1.15,2013-01-15 02:25:00,
2013-01-14 21:27:00,31.8,26.9,30.27,South,172,0.0,0.0,82,0.00,,,0.04,Wunderground v.1.15,2013-01-15 02:27:00,
2013-01-14 21:28:00,31.8,26.9,30.28,South,172,0.0,0.0,82,0.00,,,0.04,Wunderground v.1.15,2013-01-15 02:28:00,
2013-01-14 21:30:00,31.8,26.9,30.28,South,172,0.0,0.0,82,0.00,,,0.04,Wunderground v.1.15,2013-01-15 02:30:00,
2013-01-14 21:32:00,31.7,27.4,30.27,South,172,0.0,0.0,84,0.00,,,0.04,Wunderground v.1.15,2013-01-15 02:32:00,
2013-01-14 21:33:00,31.8,27.5,30.27,South,172,0.0,0.0,84,0.00,,,0.04,Wunderground v.1.15,2013-01-15 02:33:00,
2013-01-14 21:35:00,31.8,27.5,30.28,South,172,0.0,0.0,84,0.00,,,0.04,Wunderground v.1.15,2013-01-15 02:35:00,
2013-01-14 21:37:00,31.7,27.1,30.28,South,172,0.0,0.0,83,0.00,,,0.04,Wunderground v.1.15,2013-01-15 02:37:00,
2013-01-14 21:38:00,31.7,27.4,30.28,South,172,0.0,0.0,84,0.00,,,0.04,Wunderground v.1.15,2013-01-15 02:38:00,
2013-01-14 21:40:00,31.7,27.7,30.28,South,172,0.0,0.0,85,0.00,,,0.04,Wunderground v.1.15,2013-01-15 02:40:00,
2013-01-14 21:42:00,31.7,27.7,30.28,South,172,0.0,0.0,85,0.00,,,0.04,Wunderground v.1.15,2013-01-15 02:42:00,
2013-01-14 21:43:00,31.7,27.7,30.28,South,172,0.0,0.0,85,0.00,,,0.04,Wunderground v.1.15,2013-01-15 02:43:00,
2013-01-14 21:45:00,31.6,27.6,30.28,South,172,0.0,0.0,85,0.00,,,0.04,Wunderground v.1.15,2013-01-15 02:45:00,
2013-01-14 21:48:00,31.6,27.6,30.28,South,172,0.0,0.0,85,0.00,,,0.04,Wunderground v.1.15,2013-01-15 02:48:00,
2013-01-14 21:50:00,31.6,27.3,30.28,South,172,0.0,0.0,84,0.00,,,0.04,Wunderground v.1.15,2013-01-15 02:50:00,
2013-01-14 21:53:00,31.6,27.6,30.28,South,172,0.0,0.0,85,0.00,,,0.04,Wunderground v.1.15,2013-01-15 02:53:00,
2013-01-14 21:55:00,31.6,27.3,30.28,South,172,0.0,0.0,84,0.00,,,0.04,Wunderground v.1.15,2013-01-15 02:55:00,
2013-01-14 21:58:00,31.6,27.6,30.28,South,172,0.0,0.0,85,0.00,,,0.04,Wunderground v.1.15,2013-01-15 02:58:00,
2013-01-14 22:01:00,31.6,27.6,30.28,South,172,0.0,0.0,85,0.00,,,0.04,Wunderground v.1.15,2013-01-15 03:01:00,
2013-01-14 22:03:00,31.6,27.6,30.28,South,172,0.0,0.0,85,0.00,,,0.04,Wunderground v.1.15,2013-01-15 03:03:00,
2013-01-14 22:07:00,31.5,27.5,30.28,South,172,0.0,0.0,85,0.00,,,0.04,Wunderground v.1.15,2013-01-15 03:07:00,
2013-01-14 22:08:00,31.5,27.2,30.28,South,172,0.0,0.0,84,0.00,,,0.04,Wunderground v.1.15,2013-01-15 03:08:00,
2013-01-14 22:09:00,31.5,27.2,30.28,South,172,0.0,0.0,84,0.00,,,0.04,Wunderground v.1.15,2013-01-15 03:09:00,
2013-01-14 22:12:00,31.5,27.2,30.29,South,172,0.0,0.0,84,0.00,,,0.04,Wunderground v.1.15,2013-01-15 03:12:00,
2013-01-14 22:13:00,31.5,27.2,30.29,South,172,0.0,0.0,84,0.00,,,0.04,Wunderground v.1.15,2013-01-15 03:13:00,
2013-01-14 22:14:00,31.4,27.1,30.29,South,172,0.0,0.0,84,0.00,,,0.04,Wunderground v.1.15,2013-01-15 03:14:00,
2013-01-14 22:17:00,31.5,27.5,30.29,South,172,0.0,0.0,85,0.00,,,0.04,Wunderground v.1.15,2013-01-15 03:17:00,
2013-01-14 22:18:00,31.5,27.2,30.29,South,172,0.0,0.0,84,0.00,,,0.04,Wunderground v.1.15,2013-01-15 03:18:00,
2013-01-14 22:19:00,31.5,27.2,30.29,South,172,0.0,0.0,84,0.00,,,0.04,Wunderground v.1.15,2013-01-15 03:19:00,
2013-01-14 22:22:00,31.5,27.5,30.29,South,172,0.0,0.0,85,0.00,,,0.04,Wunderground v.1.15,2013-01-15 03:22:00,
2013-01-14 22:23:00,31.5,27.5,30.29,South,172,0.0,0.0,85,0.00,,,0.04,Wunderground v.1.15,2013-01-15 03:23:00,
2013-01-14 22:24:00,31.5,27.5,30.28,South,172,0.0,0.0,85,0.00,,,0.04,Wunderground v.1.15,2013-01-15 03:24:00,
2013-01-14 22:28:00,31.5,27.5,30.29,South,172,0.0,1.0,85,0.00,,,0.04,Wunderground v.1.15,2013-01-15 03:28:00,
2013-01-14 22:29:00,31.5,27.2,30.29,South,172,0.0,1.0,84,0.00,,,0.04,Wunderground v.1.15,2013-01-15 03:29:00,
2013-01-14 22:33:00,31.6,27.3,30.28,South,172,1.0,1.0,84,0.00,,,0.04,Wunderground v.1.15,2013-01-15 03:33:00,
2013-01-14 22:34:00,31.6,27.3,30.28,South,172,0.0,1.0,84,0.00,,,0.04,Wunderground v.1.15,2013-01-15 03:34:00,
2013-01-14 22:38:00,31.6,27.3,30.28,South,172,0.0,1.0,84,0.00,,,0.04,Wunderground v.1.15,2013-01-15 03:38:00,
2013-01-14 22:39:00,31.5,27.2,30.28,South,172,0.0,1.0,84,0.00,,,0.04,Wunderground v.1.15,2013-01-15 03:39:00,
2013-01-14 22:43:00,31.4,27.1,30.28,South,172,0.0,0.0,84,0.00,,,0.04,Wunderground v.1.15,2013-01-15 03:43:00,
2013-01-14 22:44:00,31.5,26.9,30.29,South,172,0.0,2.0,83,0.00,,,0.04,Wunderground v.1.15,2013-01-15 03:44:00,
2013-01-14 22:45:00,31.4,26.5,30.29,South,172,0.0,2.0,82,0.00,,,0.04,Wunderground v.1.15,2013-01-15 03:45:00,
2013-01-14 22:48:00,31.5,26.3,30.29,South,172,0.0,2.0,81,0.00,,,0.04,Wunderground v.1.15,2013-01-15 03:48:00,
2013-01-14 22:49:00,31.6,26.4,30.28,South,172,0.0,2.0,81,0.00,,,0.04,Wunderground v.1.15,2013-01-15 03:49:00,
2013-01-14 22:50:00,31.6,26.4,30.29,South,172,0.0,0.0,81,0.00,,,0.04,Wunderground v.1.15,2013-01-15 03:50:00,
2013-01-14 22:53:00,31.6,27.3,30.29,South,172,0.0,0.0,84,0.00,,,0.04,Wunderground v.1.15,2013-01-15 03:53:00,
2013-01-14 22:54:00,31.6,27.3,30.30,South,172,0.0,0.0,84,0.00,,,0.04,Wunderground v.1.15,2013-01-15 03:54:00,
2013-01-14 22:55:00,31.6,27.3,30.30,South,172,0.0,0.0,84,0.00,,,0.04,Wunderground v.1.15,2013-01-15 03:55:00,
2013-01-14 22:58:00,31.5,27.2,30.30,South,172,0.0,0.0,84,0.00,,,0.04,Wunderground v.1.15,2013-01-15 03:58:00,
2013-01-14 22:59:00,31.5,27.2,30.29,South,172,0.0,0.0,84,0.00,,,0.04,Wunderground v.1.15,2013-01-15 03:59:00,
2013-01-14 23:00:00,31.4,27.1,30.29,South,172,0.0,0.0,84,0.00,,,0.04,Wunderground v.1.15,2013-01-15 04:00:00,
2013-01-14 23:03:00,31.4,27.1,30.29,South,172,0.0,0.0,84,0.00,,,0.04,Wunderground v.1.15,2013-01-15 04:03:00,
2013-01-14 23:04:00,31.3,27.0,30.29,South,172,0.0,0.0,84,0.00,,,0.04,Wunderground v.1.15,2013-01-15 04:04:00,
2013-01-14 23:05:00,31.3,27.0,30.29,South,172,0.0,0.0,84,0.00,,,0.04,Wunderground v.1.15,2013-01-15 04:05:00,
2013-01-14 23:08:00,31.3,27.0,30.29,South,172,0.0,1.0,84,0.00,,,0.04,Wunderground v.1.15,2013-01-15 04:08:00,
2013-01-14 23:09:00,31.3,27.0,30.29,South,172,0.0,1.0,84,0.00,,,0.04,Wunderground v.1.15,2013-01-15 04:09:00,
2013-01-14 23:10:00,31.3,27.0,30.29,South,172,0.0,1.0,84,0.00,,,0.04,Wunderground v.1.15,2013-01-15 04:10:00,
2013-01-14 23:13:00,31.3,27.0,30.30,South,172,0.0,1.0,84,0.00,,,0.04,Wunderground v.1.15,2013-01-15 04:13:00,
2013-01-14 23:14:00,31.3,27.0,30.30,South,172,0.0,1.0,84,0.00,,,0.04,Wunderground v.1.15,2013-01-15 04:14:00,
2013-01-14 23:15:00,31.3,27.0,30.30,South,172,0.0,1.0,84,0.00,,,0.04,Wunderground v.1.15,2013-01-15 04:15:00,
2013-01-14 23:18:00,31.3,27.3,30.30,South,172,0.0,1.0,85,0.00,,,0.04,Wunderground v.1.15,2013-01-15 04:18:00,
2013-01-14 23:19:00,31.3,27.3,30.30,South,172,0.0,1.0,85,0.00,,,0.04,Wunderground v.1.15,2013-01-15 04:19:00,
2013-01-14 23:20:00,31.2,27.2,30.30,South,172,0.0,0.0,85,0.00,,,0.04,Wunderground v.1.15,2013-01-15 04:20:00,
2013-01-14 23:23:00,31.2,27.2,30.30,South,172,0.0,0.0,85,0.00,,,0.04,Wunderground v.1.15,2013-01-15 04:23:00,
2013-01-14 23:24:00,31.2,27.2,30.31,South,172,0.0,0.0,85,0.00,,,0.04,Wunderground v.1.15,2013-01-15 04:24:00,
2013-01-14 23:25:00,31.2,27.2,30.31,South,172,0.0,0.0,85,0.00,,,0.04,Wunderground v.1.15,2013-01-15 04:25:00,
2013-01-14 23:26:00,31.1,26.8,30.31,South,172,0.0,1.0,84,0.00,,,0.04,Wunderground v.1.15,2013-01-15 04:26:00,
2013-01-14 23:28:00,31.2,26.9,30.31,South,172,0.0,1.0,84,0.00,,,0.04,Wunderground v.1.15,2013-01-15 04:28:00,
2013-01-14 23:29:00,31.2,26.9,30.31,South,172,0.0,1.0,84,0.00,,,0.04,Wunderground v.1.15,2013-01-15 04:29:00,
2013-01-14 23:30:00,31.2,27.2,30.31,South,172,0.0,0.0,85,0.00,,,0.04,Wunderground v.1.15,2013-01-15 04:30:00,
2013-01-14 23:31:00,31.2,27.2,30.31,South,172,0.0,0.0,85,0.00,,,0.04,Wunderground v.1.15,2013-01-15 04:31:00,
2013-01-14 23:33:00,31.1,27.4,30.32,South,172,0.0,0.0,86,0.00,,,0.04,Wunderground v.1.15,2013-01-15 04:33:00,
2013-01-14 23:35:00,31.1,27.1,30.32,South,172,0.0,0.0,85,0.00,,,0.04,Wunderground v.1.15,2013-01-15 04:35:00,
2013-01-14 23:36:00,31.0,27.0,30.32,South,172,0.0,0.0,85,0.00,,,0.04,Wunderground v.1.15,2013-01-15 04:36:00,
2013-01-14 23:38:00,31.0,26.4,30.31,South,172,0.0,0.0,83,0.00,,,0.04,Wunderground v.1.15,2013-01-15 04:38:00,
2013-01-14 23:40:00,31.0,26.1,30.31,South,172,0.0,0.0,82,0.00,,,0.04,Wunderground v.1.15,2013-01-15 04:40:00,
2013-01-14 23:41:00,31.1,26.0,30.32,South,172,0.0,0.0,81,0.00,,,0.04,Wunderground v.1.15,2013-01-15 04:41:00,
2013-01-14 23:43:00,31.2,26.6,30.32,South,172,0.0,1.0,83,0.00,,,0.04,Wunderground v.1.15,2013-01-15 04:43:00,
2013-01-14 23:45:00,31.1,26.5,30.33,South,172,0.0,1.0,83,0.00,,,0.04,Wunderground v.1.15,2013-01-15 04:45:00,
2013-01-14 23:46:00,31.2,26.6,30.33,South,172,0.0,1.0,83,0.00,,,0.04,Wunderground v.1.15,2013-01-15 04:46:00,
2013-01-14 23:48:00,31.2,26.9,30.33,South,172,1.0,1.0,84,0.00,,,0.04,Wunderground v.1.15,2013-01-15 04:48:00,
2013-01-14 23:50:00,31.1,26.8,30.33,South,172,1.0,1.0,84,0.00,,,0.04,Wunderground v.1.15,2013-01-15 04:50:00,
2013-01-14 23:51:00,31.1,26.2,30.33,South,172,1.0,1.0,82,0.00,,,0.04,Wunderground v.1.15,2013-01-15 04:51:00,
2013-01-14 23:53:00,31.2,26.0,30.33,South,172,1.0,2.0,81,0.00,,,0.04,Wunderground v.1.15,2013-01-15 04:53:00,
2013-01-14 23:55:00,31.1,26.2,30.33,South,172,0.0,2.0,82,0.00,,,0.04,Wunderground v.1.15,2013-01-15 04:55:00,
2013-01-14 23:56:00,31.2,26.0,30.33,South,172,0.0,2.0,81,0.00,,,0.04,Wunderground v.1.15,2013-01-15 04:56:00,
2013-01-14 23:59:00,31.2,26.0,30.33,South,172,0.0,2.0,81,0.00,,,0.04,Wunderground v.1.15,2013-01-15 04:59:00,